﻿<?xml version="1.0" encoding="UTF-8" standalone="no" ?>
<gpx xmlns="http://www.topografix.com/GPX/1/1" creator="CompeGPS" version="1.1" xmlns:xsi="http://www.w3.org/2001/XMLSchema-instance" xsi:schemaLocation="http://www.topografix.com/GPX/1/1 http://www.topografix.com/GPX/1/1/gpx.xsd http://www.garmin.com/xmlschemas/GpxExtensions/v3 http://www.garmin.com/xmlschemas/GpxExtensionsv3.xsd http://www.garmin.com/xmlschemas/TrackPointExtension/v1 http://www.garmin.com/xmlschemas/TrackPointExtensionv1.xsd" xmlns:gpxtpx="http://www.garmin.com/xmlschemas/TrackPointExtension/v1">
  <metadata>
    <link href="http://www.compegps.com">
      <text>CompeGPS TEAM, SL</text>
    </link>
    <time>2013-05-29T11:36:34Z</time>
    <bounds maxlat="42.721457" maxlon="0.696921" minlat="42.713121" minlon="0.653796"/>
  </metadata>
<wpt lat="42.721457" lon="0.653796">
  <ele>1385</ele>
  <name>Hospice de France</name>
</wpt>
<wpt lat="42.718185" lon="0.658792">
  <ele>1435</ele>
  <name>Bif. fontaine rouge</name>
</wpt>
<wpt lat="42.718377" lon="0.665658">
  <ele>1730</ele>
  <name>Plateau de Campsaure</name>
</wpt>
<wpt lat="42.717495" lon="0.673746">
  <ele>1825</ele>
  <name>Col frontalier</name>
</wpt>
<wpt lat="42.716844" lon="0.682041">
  <ele>1940</ele>
  <name>Cab. de Roumingau</name>
</wpt>
<wpt lat="42.718050" lon="0.696921">
  <ele>2266</ele>
  <name>Entecade</name>
</wpt>
  <trk>
    <name>Entecade</name>
    <trkseg>
      <trkpt lat="42.721457" lon="0.653796">
        <ele>1376.3</ele>
        <time>2013-05-20T07:15:26Z</time>
        <name>Hospice de France</name>
      </trkpt>
      <trkpt lat="42.721391" lon="0.653884">
        <ele>1376.8</ele>
        <time>2013-05-20T07:15:54Z</time>
      </trkpt>
      <trkpt lat="42.721339" lon="0.653972">
        <ele>1377.2</ele>
        <time>2013-05-20T07:16:12Z</time>
      </trkpt>
      <trkpt lat="42.721323" lon="0.654082">
        <ele>1377.7</ele>
        <time>2013-05-20T07:16:23Z</time>
      </trkpt>
      <trkpt lat="42.721286" lon="0.654177">
        <ele>1378.7</ele>
        <time>2013-05-20T07:16:33Z</time>
      </trkpt>
      <trkpt lat="42.721212" lon="0.654255">
        <ele>1380.6</ele>
        <time>2013-05-20T07:16:43Z</time>
      </trkpt>
      <trkpt lat="42.721137" lon="0.654345">
        <ele>1382.0</ele>
        <time>2013-05-20T07:16:54Z</time>
      </trkpt>
      <trkpt lat="42.721074" lon="0.654429">
        <ele>1384.0</ele>
        <time>2013-05-20T07:17:04Z</time>
      </trkpt>
      <trkpt lat="42.721028" lon="0.654525">
        <ele>1385.4</ele>
        <time>2013-05-20T07:17:14Z</time>
      </trkpt>
      <trkpt lat="42.720997" lon="0.654673">
        <ele>1386.4</ele>
        <time>2013-05-20T07:17:31Z</time>
      </trkpt>
      <trkpt lat="42.720976" lon="0.654769">
        <ele>1386.8</ele>
        <time>2013-05-20T07:17:39Z</time>
      </trkpt>
      <trkpt lat="42.720968" lon="0.654884">
        <ele>1386.8</ele>
        <time>2013-05-20T07:17:47Z</time>
      </trkpt>
      <trkpt lat="42.720956" lon="0.655005">
        <ele>1387.3</ele>
        <time>2013-05-20T07:17:55Z</time>
      </trkpt>
      <trkpt lat="42.720908" lon="0.655136">
        <ele>1387.3</ele>
        <time>2013-05-20T07:18:04Z</time>
      </trkpt>
      <trkpt lat="42.720852" lon="0.655239">
        <ele>1387.8</ele>
        <time>2013-05-20T07:18:13Z</time>
      </trkpt>
      <trkpt lat="42.720780" lon="0.655351">
        <ele>1387.8</ele>
        <time>2013-05-20T07:18:23Z</time>
      </trkpt>
      <trkpt lat="42.720670" lon="0.655415">
        <ele>1388.3</ele>
        <time>2013-05-20T07:19:06Z</time>
      </trkpt>
      <trkpt lat="42.720652" lon="0.655484">
        <ele>1389.2</ele>
        <time>2013-05-20T07:19:35Z</time>
      </trkpt>
      <trkpt lat="42.720582" lon="0.655596">
        <ele>1390.7</ele>
        <time>2013-05-20T07:19:43Z</time>
      </trkpt>
      <trkpt lat="42.720516" lon="0.655695">
        <ele>1391.2</ele>
        <time>2013-05-20T07:19:50Z</time>
      </trkpt>
      <trkpt lat="42.720500" lon="0.655825">
        <ele>1392.1</ele>
        <time>2013-05-20T07:19:58Z</time>
      </trkpt>
      <trkpt lat="42.720449" lon="0.655944">
        <ele>1394.1</ele>
        <time>2013-05-20T07:20:08Z</time>
      </trkpt>
      <trkpt lat="42.720387" lon="0.656068">
        <ele>1395.0</ele>
        <time>2013-05-20T07:20:17Z</time>
      </trkpt>
      <trkpt lat="42.720341" lon="0.656191">
        <ele>1396.0</ele>
        <time>2013-05-20T07:20:25Z</time>
      </trkpt>
      <trkpt lat="42.720278" lon="0.656312">
        <ele>1397.9</ele>
        <time>2013-05-20T07:20:34Z</time>
      </trkpt>
      <trkpt lat="42.720234" lon="0.656426">
        <ele>1398.9</ele>
        <time>2013-05-20T07:20:42Z</time>
      </trkpt>
      <trkpt lat="42.720190" lon="0.656546">
        <ele>1400.3</ele>
        <time>2013-05-20T07:20:51Z</time>
      </trkpt>
      <trkpt lat="42.720123" lon="0.656648">
        <ele>1400.8</ele>
        <time>2013-05-20T07:20:59Z</time>
      </trkpt>
      <trkpt lat="42.720049" lon="0.656778">
        <ele>1402.2</ele>
        <time>2013-05-20T07:21:09Z</time>
      </trkpt>
      <trkpt lat="42.720026" lon="0.656914">
        <ele>1404.1</ele>
        <time>2013-05-20T07:21:18Z</time>
      </trkpt>
      <trkpt lat="42.720010" lon="0.657031">
        <ele>1404.6</ele>
        <time>2013-05-20T07:21:27Z</time>
      </trkpt>
      <trkpt lat="42.719962" lon="0.657145">
        <ele>1406.6</ele>
        <time>2013-05-20T07:21:36Z</time>
      </trkpt>
      <trkpt lat="42.719888" lon="0.657248">
        <ele>1408.0</ele>
        <time>2013-05-20T07:21:46Z</time>
      </trkpt>
      <trkpt lat="42.719776" lon="0.657343">
        <ele>1409.4</ele>
        <time>2013-05-20T07:21:58Z</time>
      </trkpt>
      <trkpt lat="42.719621" lon="0.657452">
        <ele>1412.8</ele>
        <time>2013-05-20T07:22:14Z</time>
      </trkpt>
      <trkpt lat="42.719469" lon="0.657593">
        <ele>1416.2</ele>
        <time>2013-05-20T07:22:31Z</time>
      </trkpt>
      <trkpt lat="42.719358" lon="0.657732">
        <ele>1419.0</ele>
        <time>2013-05-20T07:22:46Z</time>
      </trkpt>
      <trkpt lat="42.719215" lon="0.657889">
        <ele>1420.5</ele>
        <time>2013-05-20T07:22:59Z</time>
      </trkpt>
      <trkpt lat="42.719134" lon="0.658036">
        <ele>1423.4</ele>
        <time>2013-05-20T07:23:15Z</time>
      </trkpt>
      <trkpt lat="42.718966" lon="0.658126">
        <ele>1425.3</ele>
        <time>2013-05-20T07:23:28Z</time>
      </trkpt>
      <trkpt lat="42.718800" lon="0.658320">
        <ele>1426.2</ele>
        <time>2013-05-20T07:23:47Z</time>
      </trkpt>
      <trkpt lat="42.718676" lon="0.658282">
        <ele>1428.2</ele>
        <time>2013-05-20T07:24:01Z</time>
      </trkpt>
      <trkpt lat="42.718521" lon="0.658382">
        <ele>1430.6</ele>
        <time>2013-05-20T07:24:14Z</time>
      </trkpt>
      <trkpt lat="42.718360" lon="0.658477">
        <ele>1432.5</ele>
        <time>2013-05-20T07:24:35Z</time>
      </trkpt>
      <trkpt lat="42.718241" lon="0.658640">
        <ele>1434.9</ele>
        <time>2013-05-20T07:24:52Z</time>
      </trkpt>
      <trkpt lat="42.718185" lon="0.658792">
        <ele>1436.8</ele>
        <time>2013-05-20T07:25:09Z</time>
        <name>Bif. fontaine rouge</name>
      </trkpt>
      <trkpt lat="42.718355" lon="0.658703">
        <ele>1439.2</ele>
        <time>2013-05-20T07:25:24Z</time>
      </trkpt>
      <trkpt lat="42.718519" lon="0.658666">
        <ele>1440.7</ele>
        <time>2013-05-20T07:25:43Z</time>
      </trkpt>
      <trkpt lat="42.718481" lon="0.658789">
        <ele>1444.0</ele>
        <time>2013-05-20T07:25:59Z</time>
      </trkpt>
      <trkpt lat="42.718354" lon="0.658951">
        <ele>1446.0</ele>
        <time>2013-05-20T07:26:16Z</time>
      </trkpt>
      <trkpt lat="42.718272" lon="0.659087">
        <ele>1447.9</ele>
        <time>2013-05-20T07:26:30Z</time>
      </trkpt>
      <trkpt lat="42.718220" lon="0.659234">
        <ele>1449.3</ele>
        <time>2013-05-20T07:26:44Z</time>
      </trkpt>
      <trkpt lat="42.718118" lon="0.659382">
        <ele>1452.2</ele>
        <time>2013-05-20T07:27:02Z</time>
      </trkpt>
      <trkpt lat="42.718066" lon="0.659554">
        <ele>1454.6</ele>
        <time>2013-05-20T07:27:19Z</time>
      </trkpt>
      <trkpt lat="42.718102" lon="0.659614">
        <ele>1457.5</ele>
        <time>2013-05-20T07:27:39Z</time>
      </trkpt>
      <trkpt lat="42.718261" lon="0.659485">
        <ele>1459.9</ele>
        <time>2013-05-20T07:27:59Z</time>
      </trkpt>
      <trkpt lat="42.718403" lon="0.659422">
        <ele>1461.8</ele>
        <time>2013-05-20T07:28:14Z</time>
      </trkpt>
      <trkpt lat="42.718526" lon="0.659376">
        <ele>1462.8</ele>
        <time>2013-05-20T07:28:33Z</time>
      </trkpt>
      <trkpt lat="42.718623" lon="0.659491">
        <ele>1470.9</ele>
        <time>2013-05-20T07:28:58Z</time>
      </trkpt>
      <trkpt lat="42.718645" lon="0.659620">
        <ele>1475.3</ele>
        <time>2013-05-20T07:29:17Z</time>
      </trkpt>
      <trkpt lat="42.718662" lon="0.659752">
        <ele>1482.0</ele>
        <time>2013-05-20T07:29:42Z</time>
      </trkpt>
      <trkpt lat="42.718583" lon="0.659888">
        <ele>1486.3</ele>
        <time>2013-05-20T07:30:48Z</time>
      </trkpt>
      <trkpt lat="42.718506" lon="0.660144">
        <ele>1491.1</ele>
        <time>2013-05-20T07:31:15Z</time>
      </trkpt>
      <trkpt lat="42.718445" lon="0.660272">
        <ele>1493.6</ele>
        <time>2013-05-20T07:31:33Z</time>
      </trkpt>
      <trkpt lat="42.718410" lon="0.660419">
        <ele>1496.9</ele>
        <time>2013-05-20T07:31:52Z</time>
      </trkpt>
      <trkpt lat="42.718327" lon="0.660584">
        <ele>1501.2</ele>
        <time>2013-05-20T07:32:11Z</time>
      </trkpt>
      <trkpt lat="42.718256" lon="0.660862">
        <ele>1504.6</ele>
        <time>2013-05-20T07:32:33Z</time>
      </trkpt>
      <trkpt lat="42.718169" lon="0.661044">
        <ele>1508.9</ele>
        <time>2013-05-20T07:32:55Z</time>
      </trkpt>
      <trkpt lat="42.718086" lon="0.661350">
        <ele>1512.8</ele>
        <time>2013-05-20T07:33:25Z</time>
      </trkpt>
      <trkpt lat="42.718012" lon="0.661598">
        <ele>1516.6</ele>
        <time>2013-05-20T07:33:50Z</time>
      </trkpt>
      <trkpt lat="42.717908" lon="0.661786">
        <ele>1518.5</ele>
        <time>2013-05-20T07:34:11Z</time>
      </trkpt>
      <trkpt lat="42.717852" lon="0.661874">
        <ele>1520.9</ele>
        <time>2013-05-20T07:34:28Z</time>
      </trkpt>
      <trkpt lat="42.717774" lon="0.662091">
        <ele>1525.3</ele>
        <time>2013-05-20T07:34:51Z</time>
      </trkpt>
      <trkpt lat="42.717682" lon="0.662296">
        <ele>1529.6</ele>
        <time>2013-05-20T07:35:15Z</time>
      </trkpt>
      <trkpt lat="42.717638" lon="0.662489">
        <ele>1535.4</ele>
        <time>2013-05-20T07:35:44Z</time>
      </trkpt>
      <trkpt lat="42.717585" lon="0.662695">
        <ele>1538.7</ele>
        <time>2013-05-20T07:36:07Z</time>
      </trkpt>
      <trkpt lat="42.717538" lon="0.662930">
        <ele>1543.5</ele>
        <time>2013-05-20T07:36:33Z</time>
      </trkpt>
      <trkpt lat="42.717623" lon="0.662892">
        <ele>1547.4</ele>
        <time>2013-05-20T07:36:55Z</time>
      </trkpt>
      <trkpt lat="42.717734" lon="0.662775">
        <ele>1548.8</ele>
        <time>2013-05-20T07:37:18Z</time>
      </trkpt>
      <trkpt lat="42.717822" lon="0.662630">
        <ele>1547.9</ele>
        <time>2013-05-20T07:37:34Z</time>
      </trkpt>
      <trkpt lat="42.717886" lon="0.662604">
        <ele>1548.8</ele>
        <time>2013-05-20T07:37:53Z</time>
      </trkpt>
      <trkpt lat="42.717973" lon="0.662561">
        <ele>1550.3</ele>
        <time>2013-05-20T07:38:05Z</time>
      </trkpt>
      <trkpt lat="42.717887" lon="0.662488">
        <ele>1550.3</ele>
        <time>2013-05-20T07:39:54Z</time>
      </trkpt>
      <trkpt lat="42.717948" lon="0.662462">
        <ele>1551.7</ele>
        <time>2013-05-20T07:41:41Z</time>
      </trkpt>
      <trkpt lat="42.718056" lon="0.662412">
        <ele>1553.2</ele>
        <time>2013-05-20T07:42:01Z</time>
      </trkpt>
      <trkpt lat="42.718167" lon="0.662336">
        <ele>1556.5</ele>
        <time>2013-05-20T07:42:18Z</time>
      </trkpt>
      <trkpt lat="42.718276" lon="0.662249">
        <ele>1560.4</ele>
        <time>2013-05-20T07:42:38Z</time>
      </trkpt>
      <trkpt lat="42.718457" lon="0.662062">
        <ele>1561.3</ele>
        <time>2013-05-20T07:42:57Z</time>
      </trkpt>
      <trkpt lat="42.718590" lon="0.661915">
        <ele>1563.7</ele>
        <time>2013-05-20T07:43:11Z</time>
      </trkpt>
      <trkpt lat="42.718677" lon="0.661775">
        <ele>1564.2</ele>
        <time>2013-05-20T07:43:23Z</time>
      </trkpt>
      <trkpt lat="42.718765" lon="0.661778">
        <ele>1567.6</ele>
        <time>2013-05-20T07:43:39Z</time>
      </trkpt>
      <trkpt lat="42.718835" lon="0.661739">
        <ele>1570.0</ele>
        <time>2013-05-20T07:43:49Z</time>
      </trkpt>
      <trkpt lat="42.718953" lon="0.661680">
        <ele>1572.8</ele>
        <time>2013-05-20T07:44:04Z</time>
      </trkpt>
      <trkpt lat="42.719050" lon="0.661647">
        <ele>1577.2</ele>
        <time>2013-05-20T07:44:23Z</time>
      </trkpt>
      <trkpt lat="42.719182" lon="0.661523">
        <ele>1581.5</ele>
        <time>2013-05-20T07:44:42Z</time>
      </trkpt>
      <trkpt lat="42.719331" lon="0.661526">
        <ele>1585.3</ele>
        <time>2013-05-20T07:44:59Z</time>
      </trkpt>
      <trkpt lat="42.719411" lon="0.661444">
        <ele>1587.8</ele>
        <time>2013-05-20T07:45:14Z</time>
      </trkpt>
      <trkpt lat="42.719443" lon="0.661501">
        <ele>1590.2</ele>
        <time>2013-05-20T07:45:30Z</time>
      </trkpt>
      <trkpt lat="42.719390" lon="0.661602">
        <ele>1593.0</ele>
        <time>2013-05-20T07:45:43Z</time>
      </trkpt>
      <trkpt lat="42.719331" lon="0.661704">
        <ele>1595.9</ele>
        <time>2013-05-20T07:45:56Z</time>
      </trkpt>
      <trkpt lat="42.719305" lon="0.661809">
        <ele>1598.3</ele>
        <time>2013-05-20T07:46:10Z</time>
      </trkpt>
      <trkpt lat="42.719250" lon="0.661928">
        <ele>1601.2</ele>
        <time>2013-05-20T07:46:28Z</time>
      </trkpt>
      <trkpt lat="42.719180" lon="0.662028">
        <ele>1603.1</ele>
        <time>2013-05-20T07:46:39Z</time>
      </trkpt>
      <trkpt lat="42.719113" lon="0.662127">
        <ele>1605.5</ele>
        <time>2013-05-20T07:46:53Z</time>
      </trkpt>
      <trkpt lat="42.719065" lon="0.662263">
        <ele>1608.4</ele>
        <time>2013-05-20T07:47:08Z</time>
      </trkpt>
      <trkpt lat="42.719137" lon="0.662246">
        <ele>1611.3</ele>
        <time>2013-05-20T07:47:46Z</time>
      </trkpt>
      <trkpt lat="42.719226" lon="0.662182">
        <ele>1612.8</ele>
        <time>2013-05-20T07:47:58Z</time>
      </trkpt>
      <trkpt lat="42.719323" lon="0.662159">
        <ele>1614.2</ele>
        <time>2013-05-20T07:48:11Z</time>
      </trkpt>
      <trkpt lat="42.719414" lon="0.662108">
        <ele>1616.1</ele>
        <time>2013-05-20T07:48:23Z</time>
      </trkpt>
      <trkpt lat="42.719510" lon="0.662075">
        <ele>1619.0</ele>
        <time>2013-05-20T07:48:34Z</time>
      </trkpt>
      <trkpt lat="42.719605" lon="0.662047">
        <ele>1620.9</ele>
        <time>2013-05-20T07:48:47Z</time>
      </trkpt>
      <trkpt lat="42.719680" lon="0.662105">
        <ele>1623.3</ele>
        <time>2013-05-20T07:48:59Z</time>
      </trkpt>
      <trkpt lat="42.719771" lon="0.662047">
        <ele>1624.3</ele>
        <time>2013-05-20T07:49:14Z</time>
      </trkpt>
      <trkpt lat="42.719847" lon="0.662097">
        <ele>1626.7</ele>
        <time>2013-05-20T07:49:28Z</time>
      </trkpt>
      <trkpt lat="42.719943" lon="0.662109">
        <ele>1630.5</ele>
        <time>2013-05-20T07:49:42Z</time>
      </trkpt>
      <trkpt lat="42.720032" lon="0.662014">
        <ele>1633.9</ele>
        <time>2013-05-20T07:49:57Z</time>
      </trkpt>
      <trkpt lat="42.720124" lon="0.661958">
        <ele>1636.3</ele>
        <time>2013-05-20T07:50:08Z</time>
      </trkpt>
      <trkpt lat="42.720128" lon="0.662008">
        <ele>1641.1</ele>
        <time>2013-05-20T07:51:30Z</time>
      </trkpt>
      <trkpt lat="42.720105" lon="0.662039">
        <ele>1643.0</ele>
        <time>2013-05-20T07:55:03Z</time>
      </trkpt>
      <trkpt lat="42.720074" lon="0.662184">
        <ele>1646.4</ele>
        <time>2013-05-20T07:55:22Z</time>
      </trkpt>
      <trkpt lat="42.720057" lon="0.662313">
        <ele>1650.2</ele>
        <time>2013-05-20T07:55:41Z</time>
      </trkpt>
      <trkpt lat="42.719974" lon="0.662400">
        <ele>1653.6</ele>
        <time>2013-05-20T07:55:57Z</time>
      </trkpt>
      <trkpt lat="42.719885" lon="0.662479">
        <ele>1655.5</ele>
        <time>2013-05-20T07:56:12Z</time>
      </trkpt>
      <trkpt lat="42.719814" lon="0.662593">
        <ele>1658.9</ele>
        <time>2013-05-20T07:56:28Z</time>
      </trkpt>
      <trkpt lat="42.719808" lon="0.662699">
        <ele>1659.8</ele>
        <time>2013-05-20T07:56:57Z</time>
      </trkpt>
      <trkpt lat="42.719796" lon="0.662840">
        <ele>1661.3</ele>
        <time>2013-05-20T07:57:14Z</time>
      </trkpt>
      <trkpt lat="42.719812" lon="0.662983">
        <ele>1662.3</ele>
        <time>2013-05-20T07:57:45Z</time>
      </trkpt>
      <trkpt lat="42.719749" lon="0.663106">
        <ele>1664.2</ele>
        <time>2013-05-20T07:57:58Z</time>
      </trkpt>
      <trkpt lat="42.719663" lon="0.663201">
        <ele>1666.6</ele>
        <time>2013-05-20T07:58:12Z</time>
      </trkpt>
      <trkpt lat="42.719588" lon="0.663338">
        <ele>1669.9</ele>
        <time>2013-05-20T07:58:28Z</time>
      </trkpt>
      <trkpt lat="42.719542" lon="0.663444">
        <ele>1672.8</ele>
        <time>2013-05-20T07:58:43Z</time>
      </trkpt>
      <trkpt lat="42.719451" lon="0.663529">
        <ele>1677.6</ele>
        <time>2013-05-20T07:59:03Z</time>
      </trkpt>
      <trkpt lat="42.719383" lon="0.663621">
        <ele>1680.0</ele>
        <time>2013-05-20T07:59:18Z</time>
      </trkpt>
      <trkpt lat="42.719344" lon="0.663739">
        <ele>1681.5</ele>
        <time>2013-05-20T07:59:33Z</time>
      </trkpt>
      <trkpt lat="42.719295" lon="0.663877">
        <ele>1684.4</ele>
        <time>2013-05-20T07:59:49Z</time>
      </trkpt>
      <trkpt lat="42.719227" lon="0.663991">
        <ele>1687.2</ele>
        <time>2013-05-20T08:00:04Z</time>
      </trkpt>
      <trkpt lat="42.719151" lon="0.664076">
        <ele>1689.7</ele>
        <time>2013-05-20T08:00:19Z</time>
      </trkpt>
      <trkpt lat="42.719051" lon="0.664099">
        <ele>1691.6</ele>
        <time>2013-05-20T08:00:32Z</time>
      </trkpt>
      <trkpt lat="42.718975" lon="0.664181">
        <ele>1694.5</ele>
        <time>2013-05-20T08:00:46Z</time>
      </trkpt>
      <trkpt lat="42.718907" lon="0.664262">
        <ele>1696.4</ele>
        <time>2013-05-20T08:01:01Z</time>
      </trkpt>
      <trkpt lat="42.718809" lon="0.664307">
        <ele>1698.3</ele>
        <time>2013-05-20T08:01:14Z</time>
      </trkpt>
      <trkpt lat="42.718727" lon="0.664386">
        <ele>1703.1</ele>
        <time>2013-05-20T08:01:35Z</time>
      </trkpt>
      <trkpt lat="42.718653" lon="0.664380">
        <ele>1704.6</ele>
        <time>2013-05-20T08:01:48Z</time>
      </trkpt>
      <trkpt lat="42.718639" lon="0.664452">
        <ele>1707.4</ele>
        <time>2013-05-20T08:02:02Z</time>
      </trkpt>
      <trkpt lat="42.718628" lon="0.664534">
        <ele>1710.8</ele>
        <time>2013-05-20T08:02:16Z</time>
      </trkpt>
      <trkpt lat="42.718557" lon="0.664614">
        <ele>1712.2</ele>
        <time>2013-05-20T08:02:27Z</time>
      </trkpt>
      <trkpt lat="42.718580" lon="0.664713">
        <ele>1716.1</ele>
        <time>2013-05-20T08:02:43Z</time>
      </trkpt>
      <trkpt lat="42.718572" lon="0.664809">
        <ele>1718.5</ele>
        <time>2013-05-20T08:02:58Z</time>
      </trkpt>
      <trkpt lat="42.718524" lon="0.664898">
        <ele>1721.4</ele>
        <time>2013-05-20T08:03:12Z</time>
      </trkpt>
      <trkpt lat="42.718537" lon="0.665009">
        <ele>1723.3</ele>
        <time>2013-05-20T08:03:27Z</time>
      </trkpt>
      <trkpt lat="42.718601" lon="0.665106">
        <ele>1724.7</ele>
        <time>2013-05-20T08:03:41Z</time>
      </trkpt>
      <trkpt lat="42.718620" lon="0.665247">
        <ele>1725.2</ele>
        <time>2013-05-20T08:03:55Z</time>
      </trkpt>
      <trkpt lat="42.718542" lon="0.665323">
        <ele>1726.2</ele>
        <time>2013-05-20T08:04:11Z</time>
      </trkpt>
      <trkpt lat="42.718465" lon="0.665430">
        <ele>1728.1</ele>
        <time>2013-05-20T08:04:34Z</time>
      </trkpt>
      <trkpt lat="42.718460" lon="0.665454">
        <ele>1728.1</ele>
        <time>2013-05-20T08:08:59Z</time>
      </trkpt>
      <trkpt lat="42.718424" lon="0.665512">
        <ele>1728.1</ele>
        <time>2013-05-20T08:12:52Z</time>
      </trkpt>
      <trkpt lat="42.718377" lon="0.665658">
        <ele>1729.6</ele>
        <time>2013-05-20T08:13:08Z</time>
        <name>Plateau de Campsaure</name>
      </trkpt>
      <trkpt lat="42.718375" lon="0.665768">
        <ele>1730.5</ele>
        <time>2013-05-20T08:13:25Z</time>
      </trkpt>
      <trkpt lat="42.718384" lon="0.665886">
        <ele>1732.9</ele>
        <time>2013-05-20T08:13:39Z</time>
      </trkpt>
      <trkpt lat="42.718398" lon="0.666013">
        <ele>1736.3</ele>
        <time>2013-05-20T08:13:55Z</time>
      </trkpt>
      <trkpt lat="42.718412" lon="0.666149">
        <ele>1737.7</ele>
        <time>2013-05-20T08:14:08Z</time>
      </trkpt>
      <trkpt lat="42.718415" lon="0.666265">
        <ele>1738.2</ele>
        <time>2013-05-20T08:14:31Z</time>
      </trkpt>
      <trkpt lat="42.718419" lon="0.666387">
        <ele>1740.1</ele>
        <time>2013-05-20T08:14:48Z</time>
      </trkpt>
      <trkpt lat="42.718407" lon="0.666516">
        <ele>1740.6</ele>
        <time>2013-05-20T08:15:01Z</time>
      </trkpt>
      <trkpt lat="42.718403" lon="0.666639">
        <ele>1741.6</ele>
        <time>2013-05-20T08:15:14Z</time>
      </trkpt>
      <trkpt lat="42.718416" lon="0.666764">
        <ele>1742.5</ele>
        <time>2013-05-20T08:15:29Z</time>
      </trkpt>
      <trkpt lat="42.718445" lon="0.666893">
        <ele>1743.0</ele>
        <time>2013-05-20T08:15:42Z</time>
      </trkpt>
      <trkpt lat="42.718413" lon="0.667033">
        <ele>1744.4</ele>
        <time>2013-05-20T08:15:56Z</time>
      </trkpt>
      <trkpt lat="42.718400" lon="0.667152">
        <ele>1746.4</ele>
        <time>2013-05-20T08:16:11Z</time>
      </trkpt>
      <trkpt lat="42.718391" lon="0.667288">
        <ele>1747.3</ele>
        <time>2013-05-20T08:16:24Z</time>
      </trkpt>
      <trkpt lat="42.718409" lon="0.667428">
        <ele>1748.3</ele>
        <time>2013-05-20T08:17:03Z</time>
      </trkpt>
      <trkpt lat="42.718425" lon="0.667549">
        <ele>1750.2</ele>
        <time>2013-05-20T08:17:15Z</time>
      </trkpt>
      <trkpt lat="42.718439" lon="0.667668">
        <ele>1751.2</ele>
        <time>2013-05-20T08:17:28Z</time>
      </trkpt>
      <trkpt lat="42.718465" lon="0.667771">
        <ele>1752.1</ele>
        <time>2013-05-20T08:17:41Z</time>
      </trkpt>
      <trkpt lat="42.718480" lon="0.667894">
        <ele>1754.1</ele>
        <time>2013-05-20T08:17:55Z</time>
      </trkpt>
      <trkpt lat="42.718503" lon="0.668026">
        <ele>1756.0</ele>
        <time>2013-05-20T08:18:09Z</time>
      </trkpt>
      <trkpt lat="42.718494" lon="0.668159">
        <ele>1757.4</ele>
        <time>2013-05-20T08:18:21Z</time>
      </trkpt>
      <trkpt lat="42.718524" lon="0.668279">
        <ele>1758.9</ele>
        <time>2013-05-20T08:18:34Z</time>
      </trkpt>
      <trkpt lat="42.718540" lon="0.668409">
        <ele>1760.3</ele>
        <time>2013-05-20T08:18:47Z</time>
      </trkpt>
      <trkpt lat="42.718550" lon="0.668522">
        <ele>1760.8</ele>
        <time>2013-05-20T08:19:01Z</time>
      </trkpt>
      <trkpt lat="42.718556" lon="0.668646">
        <ele>1761.8</ele>
        <time>2013-05-20T08:19:23Z</time>
      </trkpt>
      <trkpt lat="42.718554" lon="0.668783">
        <ele>1762.2</ele>
        <time>2013-05-20T08:19:37Z</time>
      </trkpt>
      <trkpt lat="42.718539" lon="0.668910">
        <ele>1764.2</ele>
        <time>2013-05-20T08:19:50Z</time>
      </trkpt>
      <trkpt lat="42.718535" lon="0.669048">
        <ele>1765.1</ele>
        <time>2013-05-20T08:20:06Z</time>
      </trkpt>
      <trkpt lat="42.718541" lon="0.669177">
        <ele>1766.6</ele>
        <time>2013-05-20T08:20:19Z</time>
      </trkpt>
      <trkpt lat="42.718553" lon="0.669310">
        <ele>1767.5</ele>
        <time>2013-05-20T08:20:33Z</time>
      </trkpt>
      <trkpt lat="42.718563" lon="0.669449">
        <ele>1769.4</ele>
        <time>2013-05-20T08:20:46Z</time>
      </trkpt>
      <trkpt lat="42.718553" lon="0.669591">
        <ele>1770.9</ele>
        <time>2013-05-20T08:20:59Z</time>
      </trkpt>
      <trkpt lat="42.718557" lon="0.669715">
        <ele>1771.8</ele>
        <time>2013-05-20T08:21:13Z</time>
      </trkpt>
      <trkpt lat="42.718550" lon="0.669835">
        <ele>1774.2</ele>
        <time>2013-05-20T08:21:29Z</time>
      </trkpt>
      <trkpt lat="42.718530" lon="0.669955">
        <ele>1775.2</ele>
        <time>2013-05-20T08:21:44Z</time>
      </trkpt>
      <trkpt lat="42.718505" lon="0.670075">
        <ele>1776.7</ele>
        <time>2013-05-20T08:22:02Z</time>
      </trkpt>
      <trkpt lat="42.718505" lon="0.670196">
        <ele>1779.1</ele>
        <time>2013-05-20T08:22:23Z</time>
      </trkpt>
      <trkpt lat="42.718501" lon="0.670321">
        <ele>1780.0</ele>
        <time>2013-05-20T08:22:40Z</time>
      </trkpt>
      <trkpt lat="42.718489" lon="0.670424">
        <ele>1782.4</ele>
        <time>2013-05-20T08:23:00Z</time>
      </trkpt>
      <trkpt lat="42.718480" lon="0.670548">
        <ele>1784.3</ele>
        <time>2013-05-20T08:23:20Z</time>
      </trkpt>
      <trkpt lat="42.718437" lon="0.670694">
        <ele>1787.2</ele>
        <time>2013-05-20T08:23:46Z</time>
      </trkpt>
      <trkpt lat="42.718415" lon="0.670804">
        <ele>1789.2</ele>
        <time>2013-05-20T08:24:05Z</time>
      </trkpt>
      <trkpt lat="42.718387" lon="0.670912">
        <ele>1793.0</ele>
        <time>2013-05-20T08:33:01Z</time>
      </trkpt>
      <trkpt lat="42.718352" lon="0.671026">
        <ele>1794.9</ele>
        <time>2013-05-20T08:33:24Z</time>
      </trkpt>
      <trkpt lat="42.718336" lon="0.671166">
        <ele>1795.4</ele>
        <time>2013-05-20T08:33:36Z</time>
      </trkpt>
      <trkpt lat="42.718305" lon="0.671295">
        <ele>1796.8</ele>
        <time>2013-05-20T08:33:53Z</time>
      </trkpt>
      <trkpt lat="42.718268" lon="0.671431">
        <ele>1797.8</ele>
        <time>2013-05-20T08:34:21Z</time>
      </trkpt>
      <trkpt lat="42.718266" lon="0.671566">
        <ele>1799.2</ele>
        <time>2013-05-20T08:34:34Z</time>
      </trkpt>
      <trkpt lat="42.718241" lon="0.671689">
        <ele>1801.2</ele>
        <time>2013-05-20T08:34:46Z</time>
      </trkpt>
      <trkpt lat="42.718252" lon="0.671817">
        <ele>1802.6</ele>
        <time>2013-05-20T08:34:58Z</time>
      </trkpt>
      <trkpt lat="42.718225" lon="0.671945">
        <ele>1803.6</ele>
        <time>2013-05-20T08:35:10Z</time>
      </trkpt>
      <trkpt lat="42.718188" lon="0.672075">
        <ele>1804.5</ele>
        <time>2013-05-20T08:35:22Z</time>
      </trkpt>
      <trkpt lat="42.718144" lon="0.672204">
        <ele>1805.0</ele>
        <time>2013-05-20T08:35:34Z</time>
      </trkpt>
      <trkpt lat="42.718110" lon="0.672324">
        <ele>1806.4</ele>
        <time>2013-05-20T08:35:45Z</time>
      </trkpt>
      <trkpt lat="42.718072" lon="0.672423">
        <ele>1806.4</ele>
        <time>2013-05-20T08:35:57Z</time>
      </trkpt>
      <trkpt lat="42.718018" lon="0.672534">
        <ele>1807.9</ele>
        <time>2013-05-20T08:36:09Z</time>
      </trkpt>
      <trkpt lat="42.717955" lon="0.672649">
        <ele>1809.3</ele>
        <time>2013-05-20T08:36:20Z</time>
      </trkpt>
      <trkpt lat="42.717905" lon="0.672753">
        <ele>1810.3</ele>
        <time>2013-05-20T08:36:32Z</time>
      </trkpt>
      <trkpt lat="42.717867" lon="0.672868">
        <ele>1811.7</ele>
        <time>2013-05-20T08:36:47Z</time>
      </trkpt>
      <trkpt lat="42.717809" lon="0.672968">
        <ele>1812.7</ele>
        <time>2013-05-20T08:37:01Z</time>
      </trkpt>
      <trkpt lat="42.717790" lon="0.673098">
        <ele>1814.6</ele>
        <time>2013-05-20T08:37:22Z</time>
      </trkpt>
      <trkpt lat="42.717774" lon="0.673226">
        <ele>1817.0</ele>
        <time>2013-05-20T08:37:41Z</time>
      </trkpt>
      <trkpt lat="42.717722" lon="0.673340">
        <ele>1819.9</ele>
        <time>2013-05-20T08:38:01Z</time>
      </trkpt>
      <trkpt lat="42.717671" lon="0.673447">
        <ele>1821.8</ele>
        <time>2013-05-20T08:38:20Z</time>
      </trkpt>
      <trkpt lat="42.717608" lon="0.673551">
        <ele>1824.7</ele>
        <time>2013-05-20T08:38:39Z</time>
      </trkpt>
      <trkpt lat="42.717567" lon="0.673643">
        <ele>1826.2</ele>
        <time>2013-05-20T08:38:57Z</time>
      </trkpt>
      <trkpt lat="42.717495" lon="0.673746">
        <ele>1827.6</ele>
        <time>2013-05-20T08:39:11Z</time>
        <name>Col frontalier</name>
      </trkpt>
      <trkpt lat="42.717454" lon="0.673859">
        <ele>1828.6</ele>
        <time>2013-05-20T08:39:28Z</time>
      </trkpt>
      <trkpt lat="42.717406" lon="0.673964">
        <ele>1830.0</ele>
        <time>2013-05-20T08:39:41Z</time>
      </trkpt>
      <trkpt lat="42.717356" lon="0.674053">
        <ele>1831.9</ele>
        <time>2013-05-20T08:39:56Z</time>
      </trkpt>
      <trkpt lat="42.717309" lon="0.674157">
        <ele>1834.3</ele>
        <time>2013-05-20T08:40:10Z</time>
      </trkpt>
      <trkpt lat="42.717243" lon="0.674249">
        <ele>1835.8</ele>
        <time>2013-05-20T08:40:25Z</time>
      </trkpt>
      <trkpt lat="42.717186" lon="0.674327">
        <ele>1837.2</ele>
        <time>2013-05-20T08:40:37Z</time>
      </trkpt>
      <trkpt lat="42.717131" lon="0.674413">
        <ele>1838.7</ele>
        <time>2013-05-20T08:40:50Z</time>
      </trkpt>
      <trkpt lat="42.717079" lon="0.674523">
        <ele>1839.1</ele>
        <time>2013-05-20T08:41:01Z</time>
      </trkpt>
      <trkpt lat="42.717028" lon="0.674637">
        <ele>1839.6</ele>
        <time>2013-05-20T08:41:13Z</time>
      </trkpt>
      <trkpt lat="42.716973" lon="0.674741">
        <ele>1841.5</ele>
        <time>2013-05-20T08:41:27Z</time>
      </trkpt>
      <trkpt lat="42.716908" lon="0.674798">
        <ele>1843.0</ele>
        <time>2013-05-20T08:41:39Z</time>
      </trkpt>
      <trkpt lat="42.716845" lon="0.674871">
        <ele>1844.9</ele>
        <time>2013-05-20T08:41:52Z</time>
      </trkpt>
      <trkpt lat="42.716776" lon="0.674932">
        <ele>1846.8</ele>
        <time>2013-05-20T08:42:06Z</time>
      </trkpt>
      <trkpt lat="42.716699" lon="0.674982">
        <ele>1848.3</ele>
        <time>2013-05-20T08:42:21Z</time>
      </trkpt>
      <trkpt lat="42.716623" lon="0.675021">
        <ele>1850.2</ele>
        <time>2013-05-20T08:42:36Z</time>
      </trkpt>
      <trkpt lat="42.716547" lon="0.675074">
        <ele>1852.1</ele>
        <time>2013-05-20T08:42:50Z</time>
      </trkpt>
      <trkpt lat="42.716500" lon="0.675199">
        <ele>1855.0</ele>
        <time>2013-05-20T08:43:10Z</time>
      </trkpt>
      <trkpt lat="42.716464" lon="0.675318">
        <ele>1857.4</ele>
        <time>2013-05-20T08:43:26Z</time>
      </trkpt>
      <trkpt lat="42.716440" lon="0.675431">
        <ele>1860.3</ele>
        <time>2013-05-20T08:43:41Z</time>
      </trkpt>
      <trkpt lat="42.716409" lon="0.675544">
        <ele>1861.7</ele>
        <time>2013-05-20T08:43:56Z</time>
      </trkpt>
      <trkpt lat="42.716358" lon="0.675647">
        <ele>1863.7</ele>
        <time>2013-05-20T08:44:10Z</time>
      </trkpt>
      <trkpt lat="42.716298" lon="0.675750">
        <ele>1865.1</ele>
        <time>2013-05-20T08:44:25Z</time>
      </trkpt>
      <trkpt lat="42.716231" lon="0.675826">
        <ele>1867.0</ele>
        <time>2013-05-20T08:44:38Z</time>
      </trkpt>
      <trkpt lat="42.716169" lon="0.675917">
        <ele>1868.9</ele>
        <time>2013-05-20T08:44:51Z</time>
      </trkpt>
      <trkpt lat="42.716101" lon="0.676012">
        <ele>1869.9</ele>
        <time>2013-05-20T08:45:05Z</time>
      </trkpt>
      <trkpt lat="42.716043" lon="0.676100">
        <ele>1871.3</ele>
        <time>2013-05-20T08:45:18Z</time>
      </trkpt>
      <trkpt lat="42.715968" lon="0.676183">
        <ele>1873.3</ele>
        <time>2013-05-20T08:45:32Z</time>
      </trkpt>
      <trkpt lat="42.715905" lon="0.676294">
        <ele>1874.7</ele>
        <time>2013-05-20T08:45:45Z</time>
      </trkpt>
      <trkpt lat="42.715856" lon="0.676389">
        <ele>1874.7</ele>
        <time>2013-05-20T08:45:57Z</time>
      </trkpt>
      <trkpt lat="42.715813" lon="0.676490">
        <ele>1877.1</ele>
        <time>2013-05-20T08:46:09Z</time>
      </trkpt>
      <trkpt lat="42.715785" lon="0.676612">
        <ele>1878.6</ele>
        <time>2013-05-20T08:46:22Z</time>
      </trkpt>
      <trkpt lat="42.715733" lon="0.676707">
        <ele>1879.5</ele>
        <time>2013-05-20T08:46:35Z</time>
      </trkpt>
      <trkpt lat="42.715722" lon="0.676837">
        <ele>1881.4</ele>
        <time>2013-05-20T08:46:49Z</time>
      </trkpt>
      <trkpt lat="42.715716" lon="0.676972">
        <ele>1882.9</ele>
        <time>2013-05-20T08:47:02Z</time>
      </trkpt>
      <trkpt lat="42.715718" lon="0.677101">
        <ele>1884.8</ele>
        <time>2013-05-20T08:47:16Z</time>
      </trkpt>
      <trkpt lat="42.715740" lon="0.677222">
        <ele>1885.8</ele>
        <time>2013-05-20T08:47:31Z</time>
      </trkpt>
      <trkpt lat="42.715741" lon="0.677367">
        <ele>1888.2</ele>
        <time>2013-05-20T08:47:47Z</time>
      </trkpt>
      <trkpt lat="42.715737" lon="0.677504">
        <ele>1889.1</ele>
        <time>2013-05-20T08:48:02Z</time>
      </trkpt>
      <trkpt lat="42.715697" lon="0.677607">
        <ele>1890.6</ele>
        <time>2013-05-20T08:48:25Z</time>
      </trkpt>
      <trkpt lat="42.715712" lon="0.677644">
        <ele>1890.1</ele>
        <time>2013-05-20T08:51:21Z</time>
      </trkpt>
      <trkpt lat="42.715732" lon="0.677671">
        <ele>1891.1</ele>
        <time>2013-05-20T08:54:05Z</time>
      </trkpt>
      <trkpt lat="42.715785" lon="0.677783">
        <ele>1892.5</ele>
        <time>2013-05-20T08:54:20Z</time>
      </trkpt>
      <trkpt lat="42.715821" lon="0.677904">
        <ele>1893.9</ele>
        <time>2013-05-20T08:54:34Z</time>
      </trkpt>
      <trkpt lat="42.715896" lon="0.677973">
        <ele>1897.3</ele>
        <time>2013-05-20T08:54:52Z</time>
      </trkpt>
      <trkpt lat="42.715944" lon="0.677998">
        <ele>1901.6</ele>
        <time>2013-05-20T08:55:17Z</time>
      </trkpt>
      <trkpt lat="42.716022" lon="0.677987">
        <ele>1904.5</ele>
        <time>2013-05-20T08:55:49Z</time>
      </trkpt>
      <trkpt lat="42.716144" lon="0.677965">
        <ele>1909.8</ele>
        <time>2013-05-20T08:56:24Z</time>
      </trkpt>
      <trkpt lat="42.716232" lon="0.678014">
        <ele>1913.6</ele>
        <time>2013-05-20T08:56:53Z</time>
      </trkpt>
      <trkpt lat="42.716336" lon="0.678027">
        <ele>1914.6</ele>
        <time>2013-05-20T08:57:15Z</time>
      </trkpt>
      <trkpt lat="42.716432" lon="0.678054">
        <ele>1917.0</ele>
        <time>2013-05-20T08:57:32Z</time>
      </trkpt>
      <trkpt lat="42.716519" lon="0.678080">
        <ele>1918.9</ele>
        <time>2013-05-20T08:57:48Z</time>
      </trkpt>
      <trkpt lat="42.716604" lon="0.678121">
        <ele>1919.9</ele>
        <time>2013-05-20T08:58:07Z</time>
      </trkpt>
      <trkpt lat="42.716690" lon="0.678219">
        <ele>1919.9</ele>
        <time>2013-05-20T08:58:22Z</time>
      </trkpt>
      <trkpt lat="42.716730" lon="0.678315">
        <ele>1919.9</ele>
        <time>2013-05-20T08:58:33Z</time>
      </trkpt>
      <trkpt lat="42.716753" lon="0.678430">
        <ele>1920.8</ele>
        <time>2013-05-20T08:58:53Z</time>
      </trkpt>
      <trkpt lat="42.716776" lon="0.678570">
        <ele>1921.3</ele>
        <time>2013-05-20T08:59:06Z</time>
      </trkpt>
      <trkpt lat="42.716798" lon="0.678686">
        <ele>1920.4</ele>
        <time>2013-05-20T08:59:18Z</time>
      </trkpt>
      <trkpt lat="42.716829" lon="0.678809">
        <ele>1918.9</ele>
        <time>2013-05-20T08:59:29Z</time>
      </trkpt>
      <trkpt lat="42.716857" lon="0.678938">
        <ele>1918.0</ele>
        <time>2013-05-20T08:59:39Z</time>
      </trkpt>
      <trkpt lat="42.716892" lon="0.679046">
        <ele>1917.0</ele>
        <time>2013-05-20T08:59:50Z</time>
      </trkpt>
      <trkpt lat="42.716901" lon="0.679162">
        <ele>1917.0</ele>
        <time>2013-05-20T09:00:01Z</time>
      </trkpt>
      <trkpt lat="42.716938" lon="0.679305">
        <ele>1916.5</ele>
        <time>2013-05-20T09:00:13Z</time>
      </trkpt>
      <trkpt lat="42.716969" lon="0.679429">
        <ele>1916.0</ele>
        <time>2013-05-20T09:00:24Z</time>
      </trkpt>
      <trkpt lat="42.717007" lon="0.679532">
        <ele>1916.5</ele>
        <time>2013-05-20T09:00:35Z</time>
      </trkpt>
      <trkpt lat="42.717035" lon="0.679661">
        <ele>1917.0</ele>
        <time>2013-05-20T09:00:47Z</time>
      </trkpt>
      <trkpt lat="42.717035" lon="0.679792">
        <ele>1917.0</ele>
        <time>2013-05-20T09:00:58Z</time>
      </trkpt>
      <trkpt lat="42.717026" lon="0.679927">
        <ele>1917.0</ele>
        <time>2013-05-20T09:01:09Z</time>
      </trkpt>
      <trkpt lat="42.716998" lon="0.680065">
        <ele>1917.0</ele>
        <time>2013-05-20T09:01:22Z</time>
      </trkpt>
      <trkpt lat="42.716949" lon="0.680173">
        <ele>1918.0</ele>
        <time>2013-05-20T09:01:36Z</time>
      </trkpt>
      <trkpt lat="42.716902" lon="0.680289">
        <ele>1918.9</ele>
        <time>2013-05-20T09:01:49Z</time>
      </trkpt>
      <trkpt lat="42.716859" lon="0.680426">
        <ele>1920.8</ele>
        <time>2013-05-20T09:02:06Z</time>
      </trkpt>
      <trkpt lat="42.716821" lon="0.680553">
        <ele>1922.3</ele>
        <time>2013-05-20T09:02:21Z</time>
      </trkpt>
      <trkpt lat="42.716807" lon="0.680683">
        <ele>1925.7</ele>
        <time>2013-05-20T09:02:43Z</time>
      </trkpt>
      <trkpt lat="42.716812" lon="0.680872">
        <ele>1929.5</ele>
        <time>2013-05-20T09:03:13Z</time>
      </trkpt>
      <trkpt lat="42.716830" lon="0.681030">
        <ele>1931.9</ele>
        <time>2013-05-20T09:03:32Z</time>
      </trkpt>
      <trkpt lat="42.716814" lon="0.681163">
        <ele>1933.3</ele>
        <time>2013-05-20T09:03:46Z</time>
      </trkpt>
      <trkpt lat="42.716845" lon="0.681250">
        <ele>1935.8</ele>
        <time>2013-05-20T09:04:01Z</time>
      </trkpt>
      <trkpt lat="42.716862" lon="0.681364">
        <ele>1937.7</ele>
        <time>2013-05-20T09:04:15Z</time>
      </trkpt>
      <trkpt lat="42.716885" lon="0.681474">
        <ele>1940.1</ele>
        <time>2013-05-20T09:04:30Z</time>
      </trkpt>
      <trkpt lat="42.716913" lon="0.681573">
        <ele>1942.5</ele>
        <time>2013-05-20T09:04:47Z</time>
      </trkpt>
      <trkpt lat="42.716875" lon="0.681679">
        <ele>1941.5</ele>
        <time>2013-05-20T09:05:13Z</time>
      </trkpt>
      <trkpt lat="42.716851" lon="0.681816">
        <ele>1941.5</ele>
        <time>2013-05-20T09:05:28Z</time>
      </trkpt>
      <trkpt lat="42.716850" lon="0.681854">
        <ele>1941.5</ele>
        <time>2013-05-20T09:09:24Z</time>
      </trkpt>
      <trkpt lat="42.716860" lon="0.681962">
        <ele>1942.5</ele>
        <time>2013-05-20T09:09:42Z</time>
      </trkpt>
      <trkpt lat="42.716844" lon="0.682041">
        <ele>1942.0</ele>
        <time>2013-05-20T09:11:43Z</time>
        <name>Cab. de Roumingau</name>
      </trkpt>
      <trkpt lat="42.716771" lon="0.682140">
        <ele>1940.6</ele>
        <time>2013-05-20T09:11:56Z</time>
      </trkpt>
      <trkpt lat="42.716737" lon="0.682218">
        <ele>1941.0</ele>
        <time>2013-05-20T09:12:39Z</time>
      </trkpt>
      <trkpt lat="42.716672" lon="0.682318">
        <ele>1941.5</ele>
        <time>2013-05-20T09:12:54Z</time>
      </trkpt>
      <trkpt lat="42.716611" lon="0.682429">
        <ele>1943.9</ele>
        <time>2013-05-20T09:13:11Z</time>
      </trkpt>
      <trkpt lat="42.716525" lon="0.682482">
        <ele>1945.4</ele>
        <time>2013-05-20T09:13:26Z</time>
      </trkpt>
      <trkpt lat="42.716428" lon="0.682536">
        <ele>1947.3</ele>
        <time>2013-05-20T09:13:43Z</time>
      </trkpt>
      <trkpt lat="42.716397" lon="0.682626">
        <ele>1950.2</ele>
        <time>2013-05-20T09:14:03Z</time>
      </trkpt>
      <trkpt lat="42.716332" lon="0.682742">
        <ele>1953.5</ele>
        <time>2013-05-20T09:14:24Z</time>
      </trkpt>
      <trkpt lat="42.716271" lon="0.682829">
        <ele>1955.5</ele>
        <time>2013-05-20T09:14:39Z</time>
      </trkpt>
      <trkpt lat="42.716233" lon="0.682900">
        <ele>1956.9</ele>
        <time>2013-05-20T09:14:54Z</time>
      </trkpt>
      <trkpt lat="42.716175" lon="0.682999">
        <ele>1959.8</ele>
        <time>2013-05-20T09:15:15Z</time>
      </trkpt>
      <trkpt lat="42.716095" lon="0.683089">
        <ele>1961.2</ele>
        <time>2013-05-20T09:15:32Z</time>
      </trkpt>
      <trkpt lat="42.716024" lon="0.683204">
        <ele>1962.7</ele>
        <time>2013-05-20T09:15:51Z</time>
      </trkpt>
      <trkpt lat="42.715934" lon="0.683271">
        <ele>1964.6</ele>
        <time>2013-05-20T09:16:08Z</time>
      </trkpt>
      <trkpt lat="42.715861" lon="0.683326">
        <ele>1966.5</ele>
        <time>2013-05-20T09:16:27Z</time>
      </trkpt>
      <trkpt lat="42.715805" lon="0.683415">
        <ele>1968.0</ele>
        <time>2013-05-20T09:16:44Z</time>
      </trkpt>
      <trkpt lat="42.715739" lon="0.683504">
        <ele>1970.4</ele>
        <time>2013-05-20T09:17:03Z</time>
      </trkpt>
      <trkpt lat="42.715678" lon="0.683597">
        <ele>1971.8</ele>
        <time>2013-05-20T09:17:17Z</time>
      </trkpt>
      <trkpt lat="42.715640" lon="0.683706">
        <ele>1972.8</ele>
        <time>2013-05-20T09:17:35Z</time>
      </trkpt>
      <trkpt lat="42.715575" lon="0.683812">
        <ele>1974.7</ele>
        <time>2013-05-20T09:17:49Z</time>
      </trkpt>
      <trkpt lat="42.715517" lon="0.683888">
        <ele>1976.1</ele>
        <time>2013-05-20T09:18:03Z</time>
      </trkpt>
      <trkpt lat="42.715430" lon="0.683975">
        <ele>1978.1</ele>
        <time>2013-05-20T09:18:23Z</time>
      </trkpt>
      <trkpt lat="42.715337" lon="0.684026">
        <ele>1980.4</ele>
        <time>2013-05-20T09:20:59Z</time>
      </trkpt>
      <trkpt lat="42.715257" lon="0.684094">
        <ele>1981.9</ele>
        <time>2013-05-20T09:21:14Z</time>
      </trkpt>
      <trkpt lat="42.715167" lon="0.684158">
        <ele>1982.9</ele>
        <time>2013-05-20T09:21:28Z</time>
      </trkpt>
      <trkpt lat="42.715089" lon="0.684228">
        <ele>1984.3</ele>
        <time>2013-05-20T09:21:43Z</time>
      </trkpt>
      <trkpt lat="42.715030" lon="0.684322">
        <ele>1984.3</ele>
        <time>2013-05-20T09:21:56Z</time>
      </trkpt>
      <trkpt lat="42.714949" lon="0.684388">
        <ele>1985.7</ele>
        <time>2013-05-20T09:22:09Z</time>
      </trkpt>
      <trkpt lat="42.714875" lon="0.684459">
        <ele>1985.7</ele>
        <time>2013-05-20T09:22:22Z</time>
      </trkpt>
      <trkpt lat="42.714806" lon="0.684521">
        <ele>1985.7</ele>
        <time>2013-05-20T09:22:33Z</time>
      </trkpt>
      <trkpt lat="42.714731" lon="0.684592">
        <ele>1986.2</ele>
        <time>2013-05-20T09:22:47Z</time>
      </trkpt>
      <trkpt lat="42.714644" lon="0.684657">
        <ele>1985.7</ele>
        <time>2013-05-20T09:22:59Z</time>
      </trkpt>
      <trkpt lat="42.714555" lon="0.684714">
        <ele>1986.7</ele>
        <time>2013-05-20T09:23:11Z</time>
      </trkpt>
      <trkpt lat="42.714469" lon="0.684763">
        <ele>1987.7</ele>
        <time>2013-05-20T09:23:24Z</time>
      </trkpt>
      <trkpt lat="42.714362" lon="0.684812">
        <ele>1989.6</ele>
        <time>2013-05-20T09:23:40Z</time>
      </trkpt>
      <trkpt lat="42.714289" lon="0.684898">
        <ele>1992.5</ele>
        <time>2013-05-20T09:23:59Z</time>
      </trkpt>
      <trkpt lat="42.714266" lon="0.685013">
        <ele>1995.3</ele>
        <time>2013-05-20T09:24:17Z</time>
      </trkpt>
      <trkpt lat="42.714181" lon="0.685049">
        <ele>1997.3</ele>
        <time>2013-05-20T09:24:31Z</time>
      </trkpt>
      <trkpt lat="42.714110" lon="0.685142">
        <ele>1999.7</ele>
        <time>2013-05-20T09:24:49Z</time>
      </trkpt>
      <trkpt lat="42.714033" lon="0.685233">
        <ele>2001.6</ele>
        <time>2013-05-20T09:25:05Z</time>
      </trkpt>
      <trkpt lat="42.713953" lon="0.685311">
        <ele>2003.5</ele>
        <time>2013-05-20T09:25:21Z</time>
      </trkpt>
      <trkpt lat="42.713876" lon="0.685409">
        <ele>2004.5</ele>
        <time>2013-05-20T09:25:35Z</time>
      </trkpt>
      <trkpt lat="42.713802" lon="0.685487">
        <ele>2005.4</ele>
        <time>2013-05-20T09:25:48Z</time>
      </trkpt>
      <trkpt lat="42.713721" lon="0.685559">
        <ele>2006.9</ele>
        <time>2013-05-20T09:26:01Z</time>
      </trkpt>
      <trkpt lat="42.713652" lon="0.685645">
        <ele>2007.8</ele>
        <time>2013-05-20T09:26:16Z</time>
      </trkpt>
      <trkpt lat="42.713584" lon="0.685757">
        <ele>2008.8</ele>
        <time>2013-05-20T09:26:44Z</time>
      </trkpt>
      <trkpt lat="42.713552" lon="0.685882">
        <ele>2010.7</ele>
        <time>2013-05-20T09:26:58Z</time>
      </trkpt>
      <trkpt lat="42.713529" lon="0.686016">
        <ele>2011.7</ele>
        <time>2013-05-20T09:27:15Z</time>
      </trkpt>
      <trkpt lat="42.713508" lon="0.686134">
        <ele>2014.1</ele>
        <time>2013-05-20T09:27:31Z</time>
      </trkpt>
      <trkpt lat="42.713486" lon="0.686251">
        <ele>2015.5</ele>
        <time>2013-05-20T09:27:44Z</time>
      </trkpt>
      <trkpt lat="42.713464" lon="0.686377">
        <ele>2017.0</ele>
        <time>2013-05-20T09:28:00Z</time>
      </trkpt>
      <trkpt lat="42.713416" lon="0.686485">
        <ele>2019.4</ele>
        <time>2013-05-20T09:28:17Z</time>
      </trkpt>
      <trkpt lat="42.713373" lon="0.686617">
        <ele>2021.3</ele>
        <time>2013-05-20T09:28:34Z</time>
      </trkpt>
      <trkpt lat="42.713324" lon="0.686718">
        <ele>2022.8</ele>
        <time>2013-05-20T09:28:48Z</time>
      </trkpt>
      <trkpt lat="42.713268" lon="0.686833">
        <ele>2023.7</ele>
        <time>2013-05-20T09:29:04Z</time>
      </trkpt>
      <trkpt lat="42.713222" lon="0.686956">
        <ele>2024.7</ele>
        <time>2013-05-20T09:29:18Z</time>
      </trkpt>
      <trkpt lat="42.713172" lon="0.687064">
        <ele>2025.2</ele>
        <time>2013-05-20T09:29:35Z</time>
      </trkpt>
      <trkpt lat="42.713181" lon="0.687155">
        <ele>2026.1</ele>
        <time>2013-05-20T09:32:25Z</time>
      </trkpt>
      <trkpt lat="42.713182" lon="0.687288">
        <ele>2028.0</ele>
        <time>2013-05-20T09:32:38Z</time>
      </trkpt>
      <trkpt lat="42.713193" lon="0.687425">
        <ele>2028.5</ele>
        <time>2013-05-20T09:32:53Z</time>
      </trkpt>
      <trkpt lat="42.713212" lon="0.687541">
        <ele>2030.9</ele>
        <time>2013-05-20T09:33:07Z</time>
      </trkpt>
      <trkpt lat="42.713231" lon="0.687662">
        <ele>2033.3</ele>
        <time>2013-05-20T09:33:25Z</time>
      </trkpt>
      <trkpt lat="42.713214" lon="0.687794">
        <ele>2035.2</ele>
        <time>2013-05-20T09:33:41Z</time>
      </trkpt>
      <trkpt lat="42.713218" lon="0.687886">
        <ele>2037.7</ele>
        <time>2013-05-20T09:33:56Z</time>
      </trkpt>
      <trkpt lat="42.713214" lon="0.687989">
        <ele>2039.6</ele>
        <time>2013-05-20T09:34:13Z</time>
      </trkpt>
      <trkpt lat="42.713216" lon="0.688138">
        <ele>2043.4</ele>
        <time>2013-05-20T09:34:35Z</time>
      </trkpt>
      <trkpt lat="42.713236" lon="0.688266">
        <ele>2044.4</ele>
        <time>2013-05-20T09:34:52Z</time>
      </trkpt>
      <trkpt lat="42.713258" lon="0.688386">
        <ele>2047.3</ele>
        <time>2013-05-20T09:35:07Z</time>
      </trkpt>
      <trkpt lat="42.713262" lon="0.688500">
        <ele>2049.2</ele>
        <time>2013-05-20T09:35:23Z</time>
      </trkpt>
      <trkpt lat="42.713237" lon="0.688626">
        <ele>2051.1</ele>
        <time>2013-05-20T09:35:40Z</time>
      </trkpt>
      <trkpt lat="42.713212" lon="0.688770">
        <ele>2053.5</ele>
        <time>2013-05-20T09:35:59Z</time>
      </trkpt>
      <trkpt lat="42.713195" lon="0.688883">
        <ele>2055.4</ele>
        <time>2013-05-20T09:36:15Z</time>
      </trkpt>
      <trkpt lat="42.713165" lon="0.689022">
        <ele>2056.9</ele>
        <time>2013-05-20T09:36:33Z</time>
      </trkpt>
      <trkpt lat="42.713171" lon="0.689157">
        <ele>2060.2</ele>
        <time>2013-05-20T09:36:52Z</time>
      </trkpt>
      <trkpt lat="42.713135" lon="0.689315">
        <ele>2065.1</ele>
        <time>2013-05-20T09:37:21Z</time>
      </trkpt>
      <trkpt lat="42.713143" lon="0.689425">
        <ele>2067.0</ele>
        <time>2013-05-20T09:37:36Z</time>
      </trkpt>
      <trkpt lat="42.713133" lon="0.689527">
        <ele>2069.4</ele>
        <time>2013-05-20T09:37:56Z</time>
      </trkpt>
      <trkpt lat="42.713130" lon="0.689637">
        <ele>2071.8</ele>
        <time>2013-05-20T09:38:10Z</time>
      </trkpt>
      <trkpt lat="42.713121" lon="0.689739">
        <ele>2074.2</ele>
        <time>2013-05-20T09:38:29Z</time>
      </trkpt>
      <trkpt lat="42.713129" lon="0.689837">
        <ele>2076.1</ele>
        <time>2013-05-20T09:38:43Z</time>
      </trkpt>
      <trkpt lat="42.713147" lon="0.689958">
        <ele>2078.5</ele>
        <time>2013-05-20T09:39:02Z</time>
      </trkpt>
      <trkpt lat="42.713180" lon="0.690073">
        <ele>2081.9</ele>
        <time>2013-05-20T09:39:26Z</time>
      </trkpt>
      <trkpt lat="42.713171" lon="0.690199">
        <ele>2084.8</ele>
        <time>2013-05-20T09:39:46Z</time>
      </trkpt>
      <trkpt lat="42.713177" lon="0.690310">
        <ele>2087.6</ele>
        <time>2013-05-20T09:40:08Z</time>
      </trkpt>
      <trkpt lat="42.713220" lon="0.690420">
        <ele>2090.0</ele>
        <time>2013-05-20T09:40:27Z</time>
      </trkpt>
      <trkpt lat="42.713252" lon="0.690522">
        <ele>2092.4</ele>
        <time>2013-05-20T09:40:42Z</time>
      </trkpt>
      <trkpt lat="42.713287" lon="0.690629">
        <ele>2094.9</ele>
        <time>2013-05-20T09:41:00Z</time>
      </trkpt>
      <trkpt lat="42.713318" lon="0.690745">
        <ele>2097.2</ele>
        <time>2013-05-20T09:41:21Z</time>
      </trkpt>
      <trkpt lat="42.713351" lon="0.690869">
        <ele>2099.7</ele>
        <time>2013-05-20T09:41:39Z</time>
      </trkpt>
      <trkpt lat="42.713403" lon="0.690959">
        <ele>2102.1</ele>
        <time>2013-05-20T09:41:57Z</time>
      </trkpt>
      <trkpt lat="42.713449" lon="0.691057">
        <ele>2104.5</ele>
        <time>2013-05-20T09:42:19Z</time>
      </trkpt>
      <trkpt lat="42.713435" lon="0.691186">
        <ele>2106.9</ele>
        <time>2013-05-20T09:42:41Z</time>
      </trkpt>
      <trkpt lat="42.713452" lon="0.691333">
        <ele>2109.3</ele>
        <time>2013-05-20T09:42:59Z</time>
      </trkpt>
      <trkpt lat="42.713490" lon="0.691421">
        <ele>2111.7</ele>
        <time>2013-05-20T09:43:20Z</time>
      </trkpt>
      <trkpt lat="42.713543" lon="0.691512">
        <ele>2114.6</ele>
        <time>2013-05-20T09:43:39Z</time>
      </trkpt>
      <trkpt lat="42.713603" lon="0.691607">
        <ele>2117.4</ele>
        <time>2013-05-20T09:44:00Z</time>
      </trkpt>
      <trkpt lat="42.713656" lon="0.691672">
        <ele>2118.9</ele>
        <time>2013-05-20T09:44:16Z</time>
      </trkpt>
      <trkpt lat="42.713719" lon="0.691795">
        <ele>2121.3</ele>
        <time>2013-05-20T09:44:37Z</time>
      </trkpt>
      <trkpt lat="42.713786" lon="0.691890">
        <ele>2123.2</ele>
        <time>2013-05-20T09:44:56Z</time>
      </trkpt>
      <trkpt lat="42.713856" lon="0.691960">
        <ele>2125.1</ele>
        <time>2013-05-20T09:45:11Z</time>
      </trkpt>
      <trkpt lat="42.713920" lon="0.692024">
        <ele>2126.6</ele>
        <time>2013-05-20T09:45:28Z</time>
      </trkpt>
      <trkpt lat="42.714000" lon="0.692119">
        <ele>2128.5</ele>
        <time>2013-05-20T09:45:49Z</time>
      </trkpt>
      <trkpt lat="42.714081" lon="0.692196">
        <ele>2128.5</ele>
        <time>2013-05-20T09:46:04Z</time>
      </trkpt>
      <trkpt lat="42.714156" lon="0.692305">
        <ele>2129.9</ele>
        <time>2013-05-20T09:46:19Z</time>
      </trkpt>
      <trkpt lat="42.714232" lon="0.692396">
        <ele>2130.9</ele>
        <time>2013-05-20T09:46:34Z</time>
      </trkpt>
      <trkpt lat="42.714303" lon="0.692486">
        <ele>2131.9</ele>
        <time>2013-05-20T09:46:49Z</time>
      </trkpt>
      <trkpt lat="42.714357" lon="0.692566">
        <ele>2134.7</ele>
        <time>2013-05-20T09:47:08Z</time>
      </trkpt>
      <trkpt lat="42.714400" lon="0.692560">
        <ele>2133.8</ele>
        <time>2013-05-20T09:49:41Z</time>
      </trkpt>
      <trkpt lat="42.714450" lon="0.692627">
        <ele>2133.8</ele>
        <time>2013-05-20T09:49:54Z</time>
      </trkpt>
      <trkpt lat="42.714507" lon="0.692709">
        <ele>2133.3</ele>
        <time>2013-05-20T09:50:03Z</time>
      </trkpt>
      <trkpt lat="42.714562" lon="0.692816">
        <ele>2132.3</ele>
        <time>2013-05-20T09:50:15Z</time>
      </trkpt>
      <trkpt lat="42.714621" lon="0.692915">
        <ele>2132.8</ele>
        <time>2013-05-20T09:50:30Z</time>
      </trkpt>
      <trkpt lat="42.714676" lon="0.693008">
        <ele>2133.8</ele>
        <time>2013-05-20T09:50:44Z</time>
      </trkpt>
      <trkpt lat="42.714738" lon="0.693103">
        <ele>2135.2</ele>
        <time>2013-05-20T09:51:00Z</time>
      </trkpt>
      <trkpt lat="42.714769" lon="0.693219">
        <ele>2138.1</ele>
        <time>2013-05-20T09:51:16Z</time>
      </trkpt>
      <trkpt lat="42.714843" lon="0.693298">
        <ele>2140.5</ele>
        <time>2013-05-20T09:51:32Z</time>
      </trkpt>
      <trkpt lat="42.714937" lon="0.693338">
        <ele>2141.0</ele>
        <time>2013-05-20T09:51:45Z</time>
      </trkpt>
      <trkpt lat="42.715032" lon="0.693383">
        <ele>2141.9</ele>
        <time>2013-05-20T09:51:57Z</time>
      </trkpt>
      <trkpt lat="42.715123" lon="0.693433">
        <ele>2141.5</ele>
        <time>2013-05-20T09:52:09Z</time>
      </trkpt>
      <trkpt lat="42.715188" lon="0.693462">
        <ele>2141.5</ele>
        <time>2013-05-20T10:08:18Z</time>
      </trkpt>
      <trkpt lat="42.715286" lon="0.693473">
        <ele>2139.1</ele>
        <time>2013-05-20T10:08:31Z</time>
      </trkpt>
      <trkpt lat="42.715346" lon="0.693567">
        <ele>2139.6</ele>
        <time>2013-05-20T10:10:05Z</time>
      </trkpt>
      <trkpt lat="42.715417" lon="0.693650">
        <ele>2141.0</ele>
        <time>2013-05-20T10:10:19Z</time>
      </trkpt>
      <trkpt lat="42.715462" lon="0.693745">
        <ele>2142.4</ele>
        <time>2013-05-20T10:10:35Z</time>
      </trkpt>
      <trkpt lat="42.715528" lon="0.693829">
        <ele>2145.8</ele>
        <time>2013-05-20T10:10:54Z</time>
      </trkpt>
      <trkpt lat="42.715582" lon="0.693934">
        <ele>2147.2</ele>
        <time>2013-05-20T10:11:09Z</time>
      </trkpt>
      <trkpt lat="42.715637" lon="0.694033">
        <ele>2150.1</ele>
        <time>2013-05-20T10:11:26Z</time>
      </trkpt>
      <trkpt lat="42.715691" lon="0.694138">
        <ele>2153.0</ele>
        <time>2013-05-20T10:11:43Z</time>
      </trkpt>
      <trkpt lat="42.715718" lon="0.694216">
        <ele>2155.9</ele>
        <time>2013-05-20T10:13:19Z</time>
      </trkpt>
      <trkpt lat="42.715764" lon="0.694316">
        <ele>2159.3</ele>
        <time>2013-05-20T10:13:37Z</time>
      </trkpt>
      <trkpt lat="42.715824" lon="0.694402">
        <ele>2163.1</ele>
        <time>2013-05-20T10:14:01Z</time>
      </trkpt>
      <trkpt lat="42.715907" lon="0.694471">
        <ele>2167.4</ele>
        <time>2013-05-20T10:14:27Z</time>
      </trkpt>
      <trkpt lat="42.715966" lon="0.694558">
        <ele>2170.8</ele>
        <time>2013-05-20T10:14:49Z</time>
      </trkpt>
      <trkpt lat="42.716011" lon="0.694656">
        <ele>2174.6</ele>
        <time>2013-05-20T10:15:17Z</time>
      </trkpt>
      <trkpt lat="42.716086" lon="0.694721">
        <ele>2178.5</ele>
        <time>2013-05-20T10:15:42Z</time>
      </trkpt>
      <trkpt lat="42.716161" lon="0.694781">
        <ele>2181.9</ele>
        <time>2013-05-20T10:16:08Z</time>
      </trkpt>
      <trkpt lat="42.716253" lon="0.694813">
        <ele>2185.7</ele>
        <time>2013-05-20T10:16:31Z</time>
      </trkpt>
      <trkpt lat="42.716346" lon="0.694847">
        <ele>2188.6</ele>
        <time>2013-05-20T10:16:57Z</time>
      </trkpt>
      <trkpt lat="42.716416" lon="0.694924">
        <ele>2193.4</ele>
        <time>2013-05-20T10:17:26Z</time>
      </trkpt>
      <trkpt lat="42.716417" lon="0.695027">
        <ele>2197.7</ele>
        <time>2013-05-20T10:17:54Z</time>
      </trkpt>
      <trkpt lat="42.716482" lon="0.695112">
        <ele>2202.0</ele>
        <time>2013-05-20T10:18:25Z</time>
      </trkpt>
      <trkpt lat="42.716550" lon="0.695191">
        <ele>2206.8</ele>
        <time>2013-05-20T10:18:56Z</time>
      </trkpt>
      <trkpt lat="42.716637" lon="0.695248">
        <ele>2210.2</ele>
        <time>2013-05-20T10:19:26Z</time>
      </trkpt>
      <trkpt lat="42.716730" lon="0.695293">
        <ele>2214.1</ele>
        <time>2013-05-20T10:19:56Z</time>
      </trkpt>
      <trkpt lat="42.716809" lon="0.695349">
        <ele>2215.5</ele>
        <time>2013-05-20T10:20:19Z</time>
      </trkpt>
      <trkpt lat="42.716904" lon="0.695371">
        <ele>2218.4</ele>
        <time>2013-05-20T10:20:45Z</time>
      </trkpt>
      <trkpt lat="42.716951" lon="0.695439">
        <ele>2221.3</ele>
        <time>2013-05-20T10:21:39Z</time>
      </trkpt>
      <trkpt lat="42.717013" lon="0.695535">
        <ele>2228.9</ele>
        <time>2013-05-20T10:22:33Z</time>
      </trkpt>
      <trkpt lat="42.717095" lon="0.695572">
        <ele>2231.8</ele>
        <time>2013-05-20T10:22:54Z</time>
      </trkpt>
      <trkpt lat="42.717137" lon="0.695670">
        <ele>2236.6</ele>
        <time>2013-05-20T10:23:23Z</time>
      </trkpt>
      <trkpt lat="42.717161" lon="0.695805">
        <ele>2241.0</ele>
        <time>2013-05-20T10:23:51Z</time>
      </trkpt>
      <trkpt lat="42.717212" lon="0.695885">
        <ele>2242.4</ele>
        <time>2013-05-20T10:24:06Z</time>
      </trkpt>
      <trkpt lat="42.717294" lon="0.695894">
        <ele>2244.8</ele>
        <time>2013-05-20T10:24:27Z</time>
      </trkpt>
      <trkpt lat="42.717401" lon="0.695913">
        <ele>2250.1</ele>
        <time>2013-05-20T10:24:58Z</time>
      </trkpt>
      <trkpt lat="42.717485" lon="0.695974">
        <ele>2256.4</ele>
        <time>2013-05-20T10:25:36Z</time>
      </trkpt>
      <trkpt lat="42.717567" lon="0.696009">
        <ele>2260.2</ele>
        <time>2013-05-20T10:26:04Z</time>
      </trkpt>
      <trkpt lat="42.717665" lon="0.696064">
        <ele>2264.5</ele>
        <time>2013-05-20T10:26:31Z</time>
      </trkpt>
      <trkpt lat="42.717708" lon="0.696155">
        <ele>2268.4</ele>
        <time>2013-05-20T10:26:56Z</time>
      </trkpt>
      <trkpt lat="42.717762" lon="0.696266">
        <ele>2269.8</ele>
        <time>2013-05-20T10:27:16Z</time>
      </trkpt>
      <trkpt lat="42.717806" lon="0.696373">
        <ele>2268.9</ele>
        <time>2013-05-20T10:27:31Z</time>
      </trkpt>
      <trkpt lat="42.717855" lon="0.696460">
        <ele>2267.4</ele>
        <time>2013-05-20T10:27:51Z</time>
      </trkpt>
      <trkpt lat="42.717939" lon="0.696543">
        <ele>2268.9</ele>
        <time>2013-05-20T10:28:24Z</time>
      </trkpt>
      <trkpt lat="42.717981" lon="0.696663">
        <ele>2269.3</ele>
        <time>2013-05-20T10:28:37Z</time>
      </trkpt>
      <trkpt lat="42.718030" lon="0.696752">
        <ele>2269.8</ele>
        <time>2013-05-20T10:28:49Z</time>
      </trkpt>
      <trkpt lat="42.718047" lon="0.696863">
        <ele>2271.2</ele>
        <time>2013-05-20T10:29:10Z</time>
      </trkpt>
      <trkpt lat="42.718050" lon="0.696921">
        <ele>2271.7</ele>
        <time>2013-05-20T10:29:35Z</time>
        <name>Entecade</name>
      </trkpt>
      <trkpt lat="42.718036" lon="0.696891">
        <ele>2271.7</ele>
        <time>2013-05-20T10:41:11Z</time>
      </trkpt>
      <trkpt lat="42.718002" lon="0.696798">
        <ele>2269.8</ele>
        <time>2013-05-20T10:42:11Z</time>
      </trkpt>
      <trkpt lat="42.717981" lon="0.696668">
        <ele>2268.9</ele>
        <time>2013-05-20T10:42:24Z</time>
      </trkpt>
      <trkpt lat="42.717926" lon="0.696560">
        <ele>2267.9</ele>
        <time>2013-05-20T10:42:40Z</time>
      </trkpt>
      <trkpt lat="42.717872" lon="0.696447">
        <ele>2266.9</ele>
        <time>2013-05-20T10:42:52Z</time>
      </trkpt>
      <trkpt lat="42.717810" lon="0.696374">
        <ele>2266.4</ele>
        <time>2013-05-20T10:43:05Z</time>
      </trkpt>
      <trkpt lat="42.717759" lon="0.696258">
        <ele>2266.9</ele>
        <time>2013-05-20T10:43:18Z</time>
      </trkpt>
      <trkpt lat="42.717723" lon="0.696146">
        <ele>2268.9</ele>
        <time>2013-05-20T10:43:37Z</time>
      </trkpt>
      <trkpt lat="42.717650" lon="0.696056">
        <ele>2265.0</ele>
        <time>2013-05-20T10:43:55Z</time>
      </trkpt>
      <trkpt lat="42.717572" lon="0.696011">
        <ele>2260.2</ele>
        <time>2013-05-20T10:44:08Z</time>
      </trkpt>
      <trkpt lat="42.717481" lon="0.696004">
        <ele>2256.4</ele>
        <time>2013-05-20T10:44:19Z</time>
      </trkpt>
      <trkpt lat="42.717390" lon="0.695971">
        <ele>2249.1</ele>
        <time>2013-05-20T10:44:35Z</time>
      </trkpt>
      <trkpt lat="42.717312" lon="0.695899">
        <ele>2243.9</ele>
        <time>2013-05-20T10:44:50Z</time>
      </trkpt>
      <trkpt lat="42.717228" lon="0.695843">
        <ele>2238.6</ele>
        <time>2013-05-20T10:45:01Z</time>
      </trkpt>
      <trkpt lat="42.717162" lon="0.695770">
        <ele>2238.1</ele>
        <time>2013-05-20T10:45:14Z</time>
      </trkpt>
      <trkpt lat="42.717158" lon="0.695666">
        <ele>2235.2</ele>
        <time>2013-05-20T10:45:53Z</time>
      </trkpt>
      <trkpt lat="42.717108" lon="0.695559">
        <ele>2229.4</ele>
        <time>2013-05-20T10:46:06Z</time>
      </trkpt>
      <trkpt lat="42.717012" lon="0.695549">
        <ele>2227.0</ele>
        <time>2013-05-20T10:46:21Z</time>
      </trkpt>
      <trkpt lat="42.716919" lon="0.695497">
        <ele>2221.3</ele>
        <time>2013-05-20T10:46:37Z</time>
      </trkpt>
      <trkpt lat="42.716854" lon="0.695433">
        <ele>2218.4</ele>
        <time>2013-05-20T10:49:55Z</time>
      </trkpt>
      <trkpt lat="42.716773" lon="0.695379">
        <ele>2216.5</ele>
        <time>2013-05-20T10:50:17Z</time>
      </trkpt>
      <trkpt lat="42.716708" lon="0.695329">
        <ele>2212.6</ele>
        <time>2013-05-20T10:50:30Z</time>
      </trkpt>
      <trkpt lat="42.716628" lon="0.695272">
        <ele>2209.2</ele>
        <time>2013-05-20T10:50:42Z</time>
      </trkpt>
      <trkpt lat="42.716566" lon="0.695190">
        <ele>2205.4</ele>
        <time>2013-05-20T10:50:53Z</time>
      </trkpt>
      <trkpt lat="42.716501" lon="0.695096">
        <ele>2200.6</ele>
        <time>2013-05-20T10:51:06Z</time>
      </trkpt>
      <trkpt lat="42.716432" lon="0.695024">
        <ele>2196.8</ele>
        <time>2013-05-20T10:51:18Z</time>
      </trkpt>
      <trkpt lat="42.716375" lon="0.694930">
        <ele>2191.5</ele>
        <time>2013-05-20T10:51:30Z</time>
      </trkpt>
      <trkpt lat="42.716334" lon="0.694836">
        <ele>2187.6</ele>
        <time>2013-05-20T10:51:46Z</time>
      </trkpt>
      <trkpt lat="42.716275" lon="0.694798">
        <ele>2183.3</ele>
        <time>2013-05-20T10:52:45Z</time>
      </trkpt>
      <trkpt lat="42.716216" lon="0.694684">
        <ele>2178.5</ele>
        <time>2013-05-20T10:52:56Z</time>
      </trkpt>
      <trkpt lat="42.716149" lon="0.694599">
        <ele>2174.2</ele>
        <time>2013-05-20T10:53:08Z</time>
      </trkpt>
      <trkpt lat="42.716070" lon="0.694529">
        <ele>2169.8</ele>
        <time>2013-05-20T10:53:21Z</time>
      </trkpt>
      <trkpt lat="42.716010" lon="0.694433">
        <ele>2165.5</ele>
        <time>2013-05-20T10:53:33Z</time>
      </trkpt>
      <trkpt lat="42.715953" lon="0.694350">
        <ele>2162.1</ele>
        <time>2013-05-20T10:53:47Z</time>
      </trkpt>
      <trkpt lat="42.715886" lon="0.694274">
        <ele>2159.7</ele>
        <time>2013-05-20T10:55:39Z</time>
      </trkpt>
      <trkpt lat="42.715830" lon="0.694198">
        <ele>2155.4</ele>
        <time>2013-05-20T10:55:51Z</time>
      </trkpt>
      <trkpt lat="42.715756" lon="0.694138">
        <ele>2153.0</ele>
        <time>2013-05-20T10:56:05Z</time>
      </trkpt>
      <trkpt lat="42.715689" lon="0.694062">
        <ele>2150.6</ele>
        <time>2013-05-20T10:56:17Z</time>
      </trkpt>
      <trkpt lat="42.715625" lon="0.693983">
        <ele>2147.7</ele>
        <time>2013-05-20T10:56:30Z</time>
      </trkpt>
      <trkpt lat="42.715545" lon="0.693908">
        <ele>2145.3</ele>
        <time>2013-05-20T10:56:43Z</time>
      </trkpt>
      <trkpt lat="42.715480" lon="0.693816">
        <ele>2143.4</ele>
        <time>2013-05-20T10:56:58Z</time>
      </trkpt>
      <trkpt lat="42.715430" lon="0.693693">
        <ele>2140.5</ele>
        <time>2013-05-20T10:57:10Z</time>
      </trkpt>
      <trkpt lat="42.715366" lon="0.693603">
        <ele>2139.1</ele>
        <time>2013-05-20T10:57:22Z</time>
      </trkpt>
      <trkpt lat="42.715294" lon="0.693523">
        <ele>2137.6</ele>
        <time>2013-05-20T10:57:34Z</time>
      </trkpt>
      <trkpt lat="42.715214" lon="0.693470">
        <ele>2138.1</ele>
        <time>2013-05-20T10:57:46Z</time>
      </trkpt>
      <trkpt lat="42.715132" lon="0.693438">
        <ele>2140.0</ele>
        <time>2013-05-20T10:57:59Z</time>
      </trkpt>
      <trkpt lat="42.715039" lon="0.693411">
        <ele>2140.0</ele>
        <time>2013-05-20T10:58:11Z</time>
      </trkpt>
      <trkpt lat="42.714954" lon="0.693363">
        <ele>2140.0</ele>
        <time>2013-05-20T10:58:22Z</time>
      </trkpt>
      <trkpt lat="42.714871" lon="0.693308">
        <ele>2138.6</ele>
        <time>2013-05-20T10:58:37Z</time>
      </trkpt>
      <trkpt lat="42.714796" lon="0.693251">
        <ele>2138.6</ele>
        <time>2013-05-20T10:58:56Z</time>
      </trkpt>
      <trkpt lat="42.714748" lon="0.693139">
        <ele>2135.2</ele>
        <time>2013-05-20T10:59:09Z</time>
      </trkpt>
      <trkpt lat="42.714698" lon="0.693020">
        <ele>2132.3</ele>
        <time>2013-05-20T10:59:22Z</time>
      </trkpt>
      <trkpt lat="42.714635" lon="0.692923">
        <ele>2130.4</ele>
        <time>2013-05-20T10:59:33Z</time>
      </trkpt>
      <trkpt lat="42.714568" lon="0.692840">
        <ele>2130.9</ele>
        <time>2013-05-20T10:59:44Z</time>
      </trkpt>
      <trkpt lat="42.714503" lon="0.692742">
        <ele>2130.9</ele>
        <time>2013-05-20T10:59:55Z</time>
      </trkpt>
      <trkpt lat="42.714445" lon="0.692637">
        <ele>2131.9</ele>
        <time>2013-05-20T11:00:09Z</time>
      </trkpt>
      <trkpt lat="42.714384" lon="0.692539">
        <ele>2132.3</ele>
        <time>2013-05-20T11:00:23Z</time>
      </trkpt>
      <trkpt lat="42.714337" lon="0.692456">
        <ele>2132.3</ele>
        <time>2013-05-20T11:01:58Z</time>
      </trkpt>
      <trkpt lat="42.714317" lon="0.692471">
        <ele>2130.9</ele>
        <time>2013-05-20T11:06:41Z</time>
      </trkpt>
      <trkpt lat="42.714246" lon="0.692447">
        <ele>2129.9</ele>
        <time>2013-05-20T11:07:22Z</time>
      </trkpt>
      <trkpt lat="42.714164" lon="0.692349">
        <ele>2128.5</ele>
        <time>2013-05-20T11:07:38Z</time>
      </trkpt>
      <trkpt lat="42.714089" lon="0.692259">
        <ele>2126.6</ele>
        <time>2013-05-20T11:07:51Z</time>
      </trkpt>
      <trkpt lat="42.714018" lon="0.692176">
        <ele>2126.1</ele>
        <time>2013-05-20T11:08:07Z</time>
      </trkpt>
      <trkpt lat="42.713952" lon="0.692092">
        <ele>2126.1</ele>
        <time>2013-05-20T11:08:19Z</time>
      </trkpt>
      <trkpt lat="42.713894" lon="0.691993">
        <ele>2124.2</ele>
        <time>2013-05-20T11:08:32Z</time>
      </trkpt>
      <trkpt lat="42.713871" lon="0.691856">
        <ele>2120.8</ele>
        <time>2013-05-20T11:08:45Z</time>
      </trkpt>
      <trkpt lat="42.713842" lon="0.691741">
        <ele>2118.4</ele>
        <time>2013-05-20T11:08:56Z</time>
      </trkpt>
      <trkpt lat="42.713795" lon="0.691646">
        <ele>2117.0</ele>
        <time>2013-05-20T11:09:10Z</time>
      </trkpt>
      <trkpt lat="42.713734" lon="0.691583">
        <ele>2115.0</ele>
        <time>2013-05-20T11:09:22Z</time>
      </trkpt>
      <trkpt lat="42.713699" lon="0.691489">
        <ele>2114.1</ele>
        <time>2013-05-20T11:10:12Z</time>
      </trkpt>
      <trkpt lat="42.713687" lon="0.691365">
        <ele>2112.1</ele>
        <time>2013-05-20T11:10:26Z</time>
      </trkpt>
      <trkpt lat="42.713704" lon="0.691232">
        <ele>2107.8</ele>
        <time>2013-05-20T11:10:37Z</time>
      </trkpt>
      <trkpt lat="42.713701" lon="0.691096">
        <ele>2104.5</ele>
        <time>2013-05-20T11:10:48Z</time>
      </trkpt>
      <trkpt lat="42.713714" lon="0.690971">
        <ele>2101.1</ele>
        <time>2013-05-20T11:10:58Z</time>
      </trkpt>
      <trkpt lat="42.713717" lon="0.690845">
        <ele>2097.2</ele>
        <time>2013-05-20T11:11:09Z</time>
      </trkpt>
      <trkpt lat="42.713721" lon="0.690708">
        <ele>2093.9</ele>
        <time>2013-05-20T11:11:20Z</time>
      </trkpt>
      <trkpt lat="42.713749" lon="0.690595">
        <ele>2090.5</ele>
        <time>2013-05-20T11:11:31Z</time>
      </trkpt>
      <trkpt lat="42.713799" lon="0.690517">
        <ele>2088.6</ele>
        <time>2013-05-20T11:11:43Z</time>
      </trkpt>
      <trkpt lat="42.713797" lon="0.690455">
        <ele>2086.7</ele>
        <time>2013-05-20T11:14:16Z</time>
      </trkpt>
      <trkpt lat="42.713840" lon="0.690317">
        <ele>2081.9</ele>
        <time>2013-05-20T11:14:27Z</time>
      </trkpt>
      <trkpt lat="42.713859" lon="0.690191">
        <ele>2077.6</ele>
        <time>2013-05-20T11:14:39Z</time>
      </trkpt>
      <trkpt lat="42.713907" lon="0.690092">
        <ele>2073.2</ele>
        <time>2013-05-20T11:14:51Z</time>
      </trkpt>
      <trkpt lat="42.713938" lon="0.689957">
        <ele>2069.9</ele>
        <time>2013-05-20T11:15:04Z</time>
      </trkpt>
      <trkpt lat="42.713977" lon="0.689852">
        <ele>2066.5</ele>
        <time>2013-05-20T11:15:16Z</time>
      </trkpt>
      <trkpt lat="42.714033" lon="0.689741">
        <ele>2062.6</ele>
        <time>2013-05-20T11:15:26Z</time>
      </trkpt>
      <trkpt lat="42.714092" lon="0.689651">
        <ele>2060.2</ele>
        <time>2013-05-20T11:15:38Z</time>
      </trkpt>
      <trkpt lat="42.714155" lon="0.689566">
        <ele>2059.3</ele>
        <time>2013-05-20T11:15:59Z</time>
      </trkpt>
      <trkpt lat="42.714195" lon="0.689441">
        <ele>2057.8</ele>
        <time>2013-05-20T11:16:11Z</time>
      </trkpt>
      <trkpt lat="42.714227" lon="0.689317">
        <ele>2056.9</ele>
        <time>2013-05-20T11:16:24Z</time>
      </trkpt>
      <trkpt lat="42.714271" lon="0.689199">
        <ele>2055.4</ele>
        <time>2013-05-20T11:16:35Z</time>
      </trkpt>
      <trkpt lat="42.714287" lon="0.689081">
        <ele>2054.0</ele>
        <time>2013-05-20T11:16:46Z</time>
      </trkpt>
      <trkpt lat="42.714344" lon="0.688997">
        <ele>2052.6</ele>
        <time>2013-05-20T11:16:57Z</time>
      </trkpt>
      <trkpt lat="42.714352" lon="0.688873">
        <ele>2050.1</ele>
        <time>2013-05-20T11:17:08Z</time>
      </trkpt>
      <trkpt lat="42.714374" lon="0.688759">
        <ele>2047.8</ele>
        <time>2013-05-20T11:17:19Z</time>
      </trkpt>
      <trkpt lat="42.714396" lon="0.688610">
        <ele>2045.3</ele>
        <time>2013-05-20T11:17:31Z</time>
      </trkpt>
      <trkpt lat="42.714434" lon="0.688485">
        <ele>2043.4</ele>
        <time>2013-05-20T11:17:41Z</time>
      </trkpt>
      <trkpt lat="42.714459" lon="0.688381">
        <ele>2041.5</ele>
        <time>2013-05-20T11:17:52Z</time>
      </trkpt>
      <trkpt lat="42.714476" lon="0.688257">
        <ele>2039.1</ele>
        <time>2013-05-20T11:18:03Z</time>
      </trkpt>
      <trkpt lat="42.714526" lon="0.688140">
        <ele>2037.2</ele>
        <time>2013-05-20T11:18:15Z</time>
      </trkpt>
      <trkpt lat="42.714562" lon="0.688029">
        <ele>2034.8</ele>
        <time>2013-05-20T11:18:25Z</time>
      </trkpt>
      <trkpt lat="42.714598" lon="0.687913">
        <ele>2031.9</ele>
        <time>2013-05-20T11:18:37Z</time>
      </trkpt>
      <trkpt lat="42.714619" lon="0.687781">
        <ele>2029.0</ele>
        <time>2013-05-20T11:18:48Z</time>
      </trkpt>
      <trkpt lat="42.714652" lon="0.687693">
        <ele>2026.6</ele>
        <time>2013-05-20T11:19:01Z</time>
      </trkpt>
      <trkpt lat="42.714695" lon="0.687554">
        <ele>2023.7</ele>
        <time>2013-05-20T11:19:11Z</time>
      </trkpt>
      <trkpt lat="42.714725" lon="0.687430">
        <ele>2020.3</ele>
        <time>2013-05-20T11:19:24Z</time>
      </trkpt>
      <trkpt lat="42.714753" lon="0.687301">
        <ele>2017.0</ele>
        <time>2013-05-20T11:19:36Z</time>
      </trkpt>
      <trkpt lat="42.714790" lon="0.687189">
        <ele>2013.6</ele>
        <time>2013-05-20T11:19:48Z</time>
      </trkpt>
      <trkpt lat="42.714823" lon="0.687068">
        <ele>2010.2</ele>
        <time>2013-05-20T11:20:01Z</time>
      </trkpt>
      <trkpt lat="42.714863" lon="0.686953">
        <ele>2005.9</ele>
        <time>2013-05-20T11:20:13Z</time>
      </trkpt>
      <trkpt lat="42.714895" lon="0.686824">
        <ele>2002.1</ele>
        <time>2013-05-20T11:20:26Z</time>
      </trkpt>
      <trkpt lat="42.714923" lon="0.686666">
        <ele>1998.2</ele>
        <time>2013-05-20T11:20:40Z</time>
      </trkpt>
      <trkpt lat="42.714948" lon="0.686551">
        <ele>1995.8</ele>
        <time>2013-05-20T11:21:06Z</time>
      </trkpt>
      <trkpt lat="42.715006" lon="0.686446">
        <ele>1994.4</ele>
        <time>2013-05-20T11:21:17Z</time>
      </trkpt>
      <trkpt lat="42.715025" lon="0.686306">
        <ele>1992.5</ele>
        <time>2013-05-20T11:21:29Z</time>
      </trkpt>
      <trkpt lat="42.715046" lon="0.686178">
        <ele>1991.0</ele>
        <time>2013-05-20T11:21:42Z</time>
      </trkpt>
      <trkpt lat="42.715093" lon="0.686097">
        <ele>1990.1</ele>
        <time>2013-05-20T11:21:55Z</time>
      </trkpt>
      <trkpt lat="42.715127" lon="0.685968">
        <ele>1989.6</ele>
        <time>2013-05-20T11:22:08Z</time>
      </trkpt>
      <trkpt lat="42.715170" lon="0.685847">
        <ele>1989.1</ele>
        <time>2013-05-20T11:22:19Z</time>
      </trkpt>
      <trkpt lat="42.715193" lon="0.685720">
        <ele>1987.7</ele>
        <time>2013-05-20T11:22:32Z</time>
      </trkpt>
      <trkpt lat="42.715216" lon="0.685584">
        <ele>1986.7</ele>
        <time>2013-05-20T11:22:44Z</time>
      </trkpt>
      <trkpt lat="42.715238" lon="0.685498">
        <ele>1986.2</ele>
        <time>2013-05-20T11:22:56Z</time>
      </trkpt>
      <trkpt lat="42.715271" lon="0.685378">
        <ele>1984.8</ele>
        <time>2013-05-20T11:23:08Z</time>
      </trkpt>
      <trkpt lat="42.715278" lon="0.685262">
        <ele>1984.3</ele>
        <time>2013-05-20T11:23:20Z</time>
      </trkpt>
      <trkpt lat="42.715318" lon="0.685138">
        <ele>1982.9</ele>
        <time>2013-05-20T11:23:31Z</time>
      </trkpt>
      <trkpt lat="42.715359" lon="0.685029">
        <ele>1981.9</ele>
        <time>2013-05-20T11:23:41Z</time>
      </trkpt>
      <trkpt lat="42.715409" lon="0.684911">
        <ele>1980.0</ele>
        <time>2013-05-20T11:23:53Z</time>
      </trkpt>
      <trkpt lat="42.715448" lon="0.684791">
        <ele>1979.0</ele>
        <time>2013-05-20T11:24:03Z</time>
      </trkpt>
      <trkpt lat="42.715478" lon="0.684683">
        <ele>1977.6</ele>
        <time>2013-05-20T11:24:14Z</time>
      </trkpt>
      <trkpt lat="42.715513" lon="0.684565">
        <ele>1976.1</ele>
        <time>2013-05-20T11:24:26Z</time>
      </trkpt>
      <trkpt lat="42.715533" lon="0.684436">
        <ele>1975.7</ele>
        <time>2013-05-20T11:24:37Z</time>
      </trkpt>
      <trkpt lat="42.715548" lon="0.684312">
        <ele>1975.7</ele>
        <time>2013-05-20T11:24:49Z</time>
      </trkpt>
      <trkpt lat="42.715567" lon="0.684189">
        <ele>1974.7</ele>
        <time>2013-05-20T11:25:00Z</time>
      </trkpt>
      <trkpt lat="42.715587" lon="0.684073">
        <ele>1974.2</ele>
        <time>2013-05-20T11:25:10Z</time>
      </trkpt>
      <trkpt lat="42.715593" lon="0.683944">
        <ele>1972.8</ele>
        <time>2013-05-20T11:25:22Z</time>
      </trkpt>
      <trkpt lat="42.715625" lon="0.683822">
        <ele>1971.8</ele>
        <time>2013-05-20T11:25:33Z</time>
      </trkpt>
      <trkpt lat="42.715659" lon="0.683695">
        <ele>1970.4</ele>
        <time>2013-05-20T11:25:43Z</time>
      </trkpt>
      <trkpt lat="42.715693" lon="0.683566">
        <ele>1968.4</ele>
        <time>2013-05-20T11:25:53Z</time>
      </trkpt>
      <trkpt lat="42.715731" lon="0.683468">
        <ele>1966.0</ele>
        <time>2013-05-20T11:26:04Z</time>
      </trkpt>
      <trkpt lat="42.715782" lon="0.683373">
        <ele>1964.6</ele>
        <time>2013-05-20T11:26:15Z</time>
      </trkpt>
      <trkpt lat="42.715859" lon="0.683286">
        <ele>1962.7</ele>
        <time>2013-05-20T11:26:26Z</time>
      </trkpt>
      <trkpt lat="42.715942" lon="0.683210">
        <ele>1960.8</ele>
        <time>2013-05-20T11:26:36Z</time>
      </trkpt>
      <trkpt lat="42.716014" lon="0.683106">
        <ele>1959.8</ele>
        <time>2013-05-20T11:26:47Z</time>
      </trkpt>
      <trkpt lat="42.716085" lon="0.683027">
        <ele>1957.9</ele>
        <time>2013-05-20T11:26:58Z</time>
      </trkpt>
      <trkpt lat="42.716148" lon="0.682954">
        <ele>1956.4</ele>
        <time>2013-05-20T11:27:08Z</time>
      </trkpt>
      <trkpt lat="42.716199" lon="0.682846">
        <ele>1954.0</ele>
        <time>2013-05-20T11:27:19Z</time>
      </trkpt>
      <trkpt lat="42.716252" lon="0.682752">
        <ele>1952.1</ele>
        <time>2013-05-20T11:27:29Z</time>
      </trkpt>
      <trkpt lat="42.716318" lon="0.682662">
        <ele>1949.2</ele>
        <time>2013-05-20T11:27:40Z</time>
      </trkpt>
      <trkpt lat="42.716353" lon="0.682535">
        <ele>1945.8</ele>
        <time>2013-05-20T11:27:52Z</time>
      </trkpt>
      <trkpt lat="42.716417" lon="0.682445">
        <ele>1943.0</ele>
        <time>2013-05-20T11:28:03Z</time>
      </trkpt>
      <trkpt lat="42.716506" lon="0.682393">
        <ele>1941.0</ele>
        <time>2013-05-20T11:28:14Z</time>
      </trkpt>
      <trkpt lat="42.716597" lon="0.682339">
        <ele>1939.6</ele>
        <time>2013-05-20T11:28:25Z</time>
      </trkpt>
      <trkpt lat="42.716657" lon="0.682238">
        <ele>1937.7</ele>
        <time>2013-05-20T11:28:37Z</time>
      </trkpt>
      <trkpt lat="42.716736" lon="0.682148">
        <ele>1937.7</ele>
        <time>2013-05-20T11:29:08Z</time>
      </trkpt>
      <trkpt lat="42.716784" lon="0.682054">
        <ele>1937.2</ele>
        <time>2013-05-20T11:29:20Z</time>
      </trkpt>
      <trkpt lat="42.716842" lon="0.681990">
        <ele>1938.2</ele>
        <time>2013-05-20T11:29:43Z</time>
      </trkpt>
      <trkpt lat="42.716819" lon="0.681908">
        <ele>1938.2</ele>
        <time>2013-05-20T12:36:02Z</time>
      </trkpt>
      <trkpt lat="42.716838" lon="0.681763">
        <ele>1937.7</ele>
        <time>2013-05-20T12:36:16Z</time>
      </trkpt>
      <trkpt lat="42.716874" lon="0.681638">
        <ele>1937.7</ele>
        <time>2013-05-20T12:36:29Z</time>
      </trkpt>
      <trkpt lat="42.716862" lon="0.681523">
        <ele>1936.7</ele>
        <time>2013-05-20T12:36:41Z</time>
      </trkpt>
      <trkpt lat="42.716829" lon="0.681408">
        <ele>1934.3</ele>
        <time>2013-05-20T12:36:52Z</time>
      </trkpt>
      <trkpt lat="42.716821" lon="0.681284">
        <ele>1931.9</ele>
        <time>2013-05-20T12:37:03Z</time>
      </trkpt>
      <trkpt lat="42.716780" lon="0.681171">
        <ele>1928.5</ele>
        <time>2013-05-20T12:37:13Z</time>
      </trkpt>
      <trkpt lat="42.716809" lon="0.681039">
        <ele>1927.1</ele>
        <time>2013-05-20T12:37:28Z</time>
      </trkpt>
      <trkpt lat="42.716779" lon="0.680902">
        <ele>1925.2</ele>
        <time>2013-05-20T12:37:38Z</time>
      </trkpt>
      <trkpt lat="42.716773" lon="0.680792">
        <ele>1922.8</ele>
        <time>2013-05-20T12:37:47Z</time>
      </trkpt>
      <trkpt lat="42.716777" lon="0.680667">
        <ele>1919.9</ele>
        <time>2013-05-20T12:37:59Z</time>
      </trkpt>
      <trkpt lat="42.716794" lon="0.680531">
        <ele>1918.0</ele>
        <time>2013-05-20T12:38:10Z</time>
      </trkpt>
      <trkpt lat="42.716834" lon="0.680498">
        <ele>1917.5</ele>
        <time>2013-05-20T12:38:40Z</time>
      </trkpt>
      <trkpt lat="42.716821" lon="0.680299">
        <ele>1914.6</ele>
        <time>2013-05-20T12:42:27Z</time>
      </trkpt>
      <trkpt lat="42.716802" lon="0.680168">
        <ele>1913.6</ele>
        <time>2013-05-20T12:42:37Z</time>
      </trkpt>
      <trkpt lat="42.716808" lon="0.680079">
        <ele>1913.6</ele>
        <time>2013-05-20T12:43:02Z</time>
      </trkpt>
      <trkpt lat="42.716799" lon="0.679956">
        <ele>1913.6</ele>
        <time>2013-05-20T12:43:11Z</time>
      </trkpt>
      <trkpt lat="42.716773" lon="0.679818">
        <ele>1913.6</ele>
        <time>2013-05-20T12:43:19Z</time>
      </trkpt>
      <trkpt lat="42.716750" lon="0.679691">
        <ele>1913.6</ele>
        <time>2013-05-20T12:43:28Z</time>
      </trkpt>
      <trkpt lat="42.716743" lon="0.679555">
        <ele>1913.6</ele>
        <time>2013-05-20T12:43:37Z</time>
      </trkpt>
      <trkpt lat="42.716742" lon="0.679429">
        <ele>1913.6</ele>
        <time>2013-05-20T12:43:45Z</time>
      </trkpt>
      <trkpt lat="42.716745" lon="0.679303">
        <ele>1912.7</ele>
        <time>2013-05-20T12:43:54Z</time>
      </trkpt>
      <trkpt lat="42.716747" lon="0.679175">
        <ele>1913.6</ele>
        <time>2013-05-20T12:44:04Z</time>
      </trkpt>
      <trkpt lat="42.716746" lon="0.679021">
        <ele>1913.6</ele>
        <time>2013-05-20T12:44:13Z</time>
      </trkpt>
      <trkpt lat="42.716749" lon="0.678878">
        <ele>1913.6</ele>
        <time>2013-05-20T12:44:22Z</time>
      </trkpt>
      <trkpt lat="42.716761" lon="0.678750">
        <ele>1915.1</ele>
        <time>2013-05-20T12:44:32Z</time>
      </trkpt>
      <trkpt lat="42.716753" lon="0.678653">
        <ele>1917.0</ele>
        <time>2013-05-20T12:44:42Z</time>
      </trkpt>
      <trkpt lat="42.716755" lon="0.678595">
        <ele>1916.0</ele>
        <time>2013-05-20T12:45:27Z</time>
      </trkpt>
      <trkpt lat="42.716739" lon="0.678547">
        <ele>1917.0</ele>
        <time>2013-05-20T12:45:59Z</time>
      </trkpt>
      <trkpt lat="42.716738" lon="0.678410">
        <ele>1916.0</ele>
        <time>2013-05-20T12:46:10Z</time>
      </trkpt>
      <trkpt lat="42.716726" lon="0.678286">
        <ele>1915.1</ele>
        <time>2013-05-20T12:46:20Z</time>
      </trkpt>
      <trkpt lat="42.716699" lon="0.678191">
        <ele>1914.1</ele>
        <time>2013-05-20T12:46:31Z</time>
      </trkpt>
      <trkpt lat="42.716647" lon="0.678072">
        <ele>1912.2</ele>
        <time>2013-05-20T12:46:41Z</time>
      </trkpt>
      <trkpt lat="42.716585" lon="0.678003">
        <ele>1910.8</ele>
        <time>2013-05-20T12:46:53Z</time>
      </trkpt>
      <trkpt lat="42.716532" lon="0.677890">
        <ele>1906.4</ele>
        <time>2013-05-20T12:47:03Z</time>
      </trkpt>
      <trkpt lat="42.716538" lon="0.677781">
        <ele>1902.1</ele>
        <time>2013-05-20T12:47:13Z</time>
      </trkpt>
      <trkpt lat="42.716546" lon="0.677679">
        <ele>1899.2</ele>
        <time>2013-05-20T12:47:23Z</time>
      </trkpt>
      <trkpt lat="42.716548" lon="0.677542">
        <ele>1896.3</ele>
        <time>2013-05-20T12:47:35Z</time>
      </trkpt>
      <trkpt lat="42.716557" lon="0.677404">
        <ele>1893.4</ele>
        <time>2013-05-20T12:47:46Z</time>
      </trkpt>
      <trkpt lat="42.716568" lon="0.677286">
        <ele>1893.0</ele>
        <time>2013-05-20T12:47:57Z</time>
      </trkpt>
      <trkpt lat="42.716576" lon="0.677147">
        <ele>1891.5</ele>
        <time>2013-05-20T12:48:11Z</time>
      </trkpt>
      <trkpt lat="42.716590" lon="0.677013">
        <ele>1889.1</ele>
        <time>2013-05-20T12:48:21Z</time>
      </trkpt>
      <trkpt lat="42.716611" lon="0.676882">
        <ele>1887.7</ele>
        <time>2013-05-20T12:48:31Z</time>
      </trkpt>
      <trkpt lat="42.716630" lon="0.676765">
        <ele>1887.2</ele>
        <time>2013-05-20T12:48:41Z</time>
      </trkpt>
      <trkpt lat="42.716655" lon="0.676632">
        <ele>1885.8</ele>
        <time>2013-05-20T12:48:51Z</time>
      </trkpt>
      <trkpt lat="42.716665" lon="0.676502">
        <ele>1884.8</ele>
        <time>2013-05-20T12:49:01Z</time>
      </trkpt>
      <trkpt lat="42.716686" lon="0.676386">
        <ele>1883.4</ele>
        <time>2013-05-20T12:49:10Z</time>
      </trkpt>
      <trkpt lat="42.716731" lon="0.676270">
        <ele>1881.9</ele>
        <time>2013-05-20T12:49:19Z</time>
      </trkpt>
      <trkpt lat="42.716765" lon="0.676153">
        <ele>1879.5</ele>
        <time>2013-05-20T12:49:29Z</time>
      </trkpt>
      <trkpt lat="42.716799" lon="0.676051">
        <ele>1876.6</ele>
        <time>2013-05-20T12:49:38Z</time>
      </trkpt>
      <trkpt lat="42.716825" lon="0.675951">
        <ele>1872.8</ele>
        <time>2013-05-20T12:49:48Z</time>
      </trkpt>
      <trkpt lat="42.716870" lon="0.675842">
        <ele>1869.9</ele>
        <time>2013-05-20T12:49:58Z</time>
      </trkpt>
      <trkpt lat="42.716906" lon="0.675749">
        <ele>1865.6</ele>
        <time>2013-05-20T12:50:07Z</time>
      </trkpt>
      <trkpt lat="42.716956" lon="0.675642">
        <ele>1860.8</ele>
        <time>2013-05-20T12:50:17Z</time>
      </trkpt>
      <trkpt lat="42.717007" lon="0.675545">
        <ele>1857.4</ele>
        <time>2013-05-20T12:50:28Z</time>
      </trkpt>
      <trkpt lat="42.717065" lon="0.675445">
        <ele>1852.6</ele>
        <time>2013-05-20T12:50:37Z</time>
      </trkpt>
      <trkpt lat="42.717100" lon="0.675338">
        <ele>1849.7</ele>
        <time>2013-05-20T12:50:45Z</time>
      </trkpt>
      <trkpt lat="42.717129" lon="0.675225">
        <ele>1846.8</ele>
        <time>2013-05-20T12:50:54Z</time>
      </trkpt>
      <trkpt lat="42.717163" lon="0.675110">
        <ele>1843.9</ele>
        <time>2013-05-20T12:51:03Z</time>
      </trkpt>
      <trkpt lat="42.717186" lon="0.674992">
        <ele>1842.5</ele>
        <time>2013-05-20T12:51:13Z</time>
      </trkpt>
      <trkpt lat="42.717176" lon="0.674892">
        <ele>1840.6</ele>
        <time>2013-05-20T12:51:24Z</time>
      </trkpt>
      <trkpt lat="42.717181" lon="0.674750">
        <ele>1838.7</ele>
        <time>2013-05-20T12:51:34Z</time>
      </trkpt>
      <trkpt lat="42.717190" lon="0.674622">
        <ele>1837.7</ele>
        <time>2013-05-20T12:51:44Z</time>
      </trkpt>
      <trkpt lat="42.717202" lon="0.674529">
        <ele>1837.2</ele>
        <time>2013-05-20T12:52:23Z</time>
      </trkpt>
      <trkpt lat="42.717170" lon="0.674474">
        <ele>1836.3</ele>
        <time>2013-05-20T12:53:43Z</time>
      </trkpt>
      <trkpt lat="42.717202" lon="0.674355">
        <ele>1836.3</ele>
        <time>2013-05-20T12:56:43Z</time>
      </trkpt>
      <trkpt lat="42.717268" lon="0.674264">
        <ele>1834.3</ele>
        <time>2013-05-20T12:56:59Z</time>
      </trkpt>
      <trkpt lat="42.717328" lon="0.674172">
        <ele>1832.9</ele>
        <time>2013-05-20T12:57:08Z</time>
      </trkpt>
      <trkpt lat="42.717379" lon="0.674064">
        <ele>1830.0</ele>
        <time>2013-05-20T12:57:18Z</time>
      </trkpt>
      <trkpt lat="42.717431" lon="0.673957">
        <ele>1828.6</ele>
        <time>2013-05-20T12:57:28Z</time>
      </trkpt>
      <trkpt lat="42.717482" lon="0.673847">
        <ele>1827.1</ele>
        <time>2013-05-20T12:57:38Z</time>
      </trkpt>
      <trkpt lat="42.717537" lon="0.673748">
        <ele>1825.7</ele>
        <time>2013-05-20T12:57:48Z</time>
      </trkpt>
      <trkpt lat="42.717592" lon="0.673640">
        <ele>1823.8</ele>
        <time>2013-05-20T12:57:57Z</time>
      </trkpt>
      <trkpt lat="42.717642" lon="0.673532">
        <ele>1823.3</ele>
        <time>2013-05-20T12:58:07Z</time>
      </trkpt>
      <trkpt lat="42.717695" lon="0.673430">
        <ele>1819.9</ele>
        <time>2013-05-20T12:58:15Z</time>
      </trkpt>
      <trkpt lat="42.717750" lon="0.673319">
        <ele>1817.5</ele>
        <time>2013-05-20T12:58:25Z</time>
      </trkpt>
      <trkpt lat="42.717790" lon="0.673197">
        <ele>1815.1</ele>
        <time>2013-05-20T12:58:35Z</time>
      </trkpt>
      <trkpt lat="42.717803" lon="0.673077">
        <ele>1812.7</ele>
        <time>2013-05-20T12:58:44Z</time>
      </trkpt>
      <trkpt lat="42.717842" lon="0.672956">
        <ele>1810.3</ele>
        <time>2013-05-20T12:58:53Z</time>
      </trkpt>
      <trkpt lat="42.717878" lon="0.672844">
        <ele>1808.4</ele>
        <time>2013-05-20T12:59:07Z</time>
      </trkpt>
      <trkpt lat="42.717885" lon="0.672834">
        <ele>1809.3</ele>
        <time>2013-05-20T13:02:34Z</time>
      </trkpt>
      <trkpt lat="42.717927" lon="0.672701">
        <ele>1806.4</ele>
        <time>2013-05-20T13:02:45Z</time>
      </trkpt>
      <trkpt lat="42.717985" lon="0.672592">
        <ele>1806.9</ele>
        <time>2013-05-20T13:02:55Z</time>
      </trkpt>
      <trkpt lat="42.718042" lon="0.672476">
        <ele>1805.0</ele>
        <time>2013-05-20T13:03:04Z</time>
      </trkpt>
      <trkpt lat="42.718086" lon="0.672367">
        <ele>1804.1</ele>
        <time>2013-05-20T13:03:13Z</time>
      </trkpt>
      <trkpt lat="42.718113" lon="0.672256">
        <ele>1803.1</ele>
        <time>2013-05-20T13:03:23Z</time>
      </trkpt>
      <trkpt lat="42.718159" lon="0.672140">
        <ele>1802.1</ele>
        <time>2013-05-20T13:03:33Z</time>
      </trkpt>
      <trkpt lat="42.718199" lon="0.672013">
        <ele>1802.1</ele>
        <time>2013-05-20T13:03:44Z</time>
      </trkpt>
      <trkpt lat="42.718241" lon="0.671906">
        <ele>1801.7</ele>
        <time>2013-05-20T13:03:54Z</time>
      </trkpt>
      <trkpt lat="42.718262" lon="0.671778">
        <ele>1799.7</ele>
        <time>2013-05-20T13:04:04Z</time>
      </trkpt>
      <trkpt lat="42.718262" lon="0.671649">
        <ele>1797.8</ele>
        <time>2013-05-20T13:04:14Z</time>
      </trkpt>
      <trkpt lat="42.718288" lon="0.671505">
        <ele>1796.8</ele>
        <time>2013-05-20T13:04:24Z</time>
      </trkpt>
      <trkpt lat="42.718306" lon="0.671370">
        <ele>1795.4</ele>
        <time>2013-05-20T13:04:33Z</time>
      </trkpt>
      <trkpt lat="42.718326" lon="0.671239">
        <ele>1794.4</ele>
        <time>2013-05-20T13:04:43Z</time>
      </trkpt>
      <trkpt lat="42.718354" lon="0.671113">
        <ele>1794.0</ele>
        <time>2013-05-20T13:04:53Z</time>
      </trkpt>
      <trkpt lat="42.718393" lon="0.670988">
        <ele>1791.6</ele>
        <time>2013-05-20T13:05:03Z</time>
      </trkpt>
      <trkpt lat="42.718374" lon="0.670861">
        <ele>1790.6</ele>
        <time>2013-05-20T13:05:13Z</time>
      </trkpt>
      <trkpt lat="42.718387" lon="0.670724">
        <ele>1787.2</ele>
        <time>2013-05-20T13:05:22Z</time>
      </trkpt>
      <trkpt lat="42.718421" lon="0.670613">
        <ele>1785.3</ele>
        <time>2013-05-20T13:05:30Z</time>
      </trkpt>
      <trkpt lat="42.718457" lon="0.670492">
        <ele>1782.9</ele>
        <time>2013-05-20T13:05:41Z</time>
      </trkpt>
      <trkpt lat="42.718471" lon="0.670370">
        <ele>1781.5</ele>
        <time>2013-05-20T13:05:53Z</time>
      </trkpt>
      <trkpt lat="42.718479" lon="0.670245">
        <ele>1779.5</ele>
        <time>2013-05-20T13:06:04Z</time>
      </trkpt>
      <trkpt lat="42.718484" lon="0.670121">
        <ele>1777.1</ele>
        <time>2013-05-20T13:06:16Z</time>
      </trkpt>
      <trkpt lat="42.718546" lon="0.670037">
        <ele>1775.7</ele>
        <time>2013-05-20T13:09:50Z</time>
      </trkpt>
      <trkpt lat="42.718580" lon="0.669955">
        <ele>1774.7</ele>
        <time>2013-05-20T13:10:40Z</time>
      </trkpt>
      <trkpt lat="42.718601" lon="0.669863">
        <ele>1774.2</ele>
        <time>2013-05-20T13:14:19Z</time>
      </trkpt>
      <trkpt lat="42.718608" lon="0.669740">
        <ele>1771.4</ele>
        <time>2013-05-20T13:14:28Z</time>
      </trkpt>
      <trkpt lat="42.718623" lon="0.669619">
        <ele>1770.9</ele>
        <time>2013-05-20T13:14:37Z</time>
      </trkpt>
      <trkpt lat="42.718622" lon="0.669490">
        <ele>1768.5</ele>
        <time>2013-05-20T13:14:46Z</time>
      </trkpt>
      <trkpt lat="42.718617" lon="0.669358">
        <ele>1766.6</ele>
        <time>2013-05-20T13:14:56Z</time>
      </trkpt>
      <trkpt lat="42.718612" lon="0.669203">
        <ele>1765.6</ele>
        <time>2013-05-20T13:15:05Z</time>
      </trkpt>
      <trkpt lat="42.718598" lon="0.669088">
        <ele>1764.2</ele>
        <time>2013-05-20T13:15:13Z</time>
      </trkpt>
      <trkpt lat="42.718598" lon="0.668963">
        <ele>1762.7</ele>
        <time>2013-05-20T13:15:22Z</time>
      </trkpt>
      <trkpt lat="42.718609" lon="0.668831">
        <ele>1761.8</ele>
        <time>2013-05-20T13:15:31Z</time>
      </trkpt>
      <trkpt lat="42.718603" lon="0.668708">
        <ele>1760.8</ele>
        <time>2013-05-20T13:15:40Z</time>
      </trkpt>
      <trkpt lat="42.718586" lon="0.668574">
        <ele>1759.3</ele>
        <time>2013-05-20T13:15:50Z</time>
      </trkpt>
      <trkpt lat="42.718546" lon="0.668474">
        <ele>1758.9</ele>
        <time>2013-05-20T13:16:00Z</time>
      </trkpt>
      <trkpt lat="42.718526" lon="0.668344">
        <ele>1758.4</ele>
        <time>2013-05-20T13:16:09Z</time>
      </trkpt>
      <trkpt lat="42.718519" lon="0.668204">
        <ele>1757.4</ele>
        <time>2013-05-20T13:16:18Z</time>
      </trkpt>
      <trkpt lat="42.718505" lon="0.668064">
        <ele>1755.5</ele>
        <time>2013-05-20T13:16:27Z</time>
      </trkpt>
      <trkpt lat="42.718491" lon="0.667943">
        <ele>1754.1</ele>
        <time>2013-05-20T13:16:37Z</time>
      </trkpt>
      <trkpt lat="42.718479" lon="0.667801">
        <ele>1751.2</ele>
        <time>2013-05-20T13:16:46Z</time>
      </trkpt>
      <trkpt lat="42.718464" lon="0.667672">
        <ele>1749.7</ele>
        <time>2013-05-20T13:16:55Z</time>
      </trkpt>
      <trkpt lat="42.718439" lon="0.667547">
        <ele>1748.3</ele>
        <time>2013-05-20T13:17:03Z</time>
      </trkpt>
      <trkpt lat="42.718420" lon="0.667420">
        <ele>1747.3</ele>
        <time>2013-05-20T13:17:11Z</time>
      </trkpt>
      <trkpt lat="42.718406" lon="0.667288">
        <ele>1745.9</ele>
        <time>2013-05-20T13:17:20Z</time>
      </trkpt>
      <trkpt lat="42.718392" lon="0.667168">
        <ele>1743.5</ele>
        <time>2013-05-20T13:17:29Z</time>
      </trkpt>
      <trkpt lat="42.718395" lon="0.667042">
        <ele>1743.0</ele>
        <time>2013-05-20T13:17:38Z</time>
      </trkpt>
      <trkpt lat="42.718409" lon="0.666918">
        <ele>1742.1</ele>
        <time>2013-05-20T13:17:47Z</time>
      </trkpt>
      <trkpt lat="42.718419" lon="0.666794">
        <ele>1740.1</ele>
        <time>2013-05-20T13:17:56Z</time>
      </trkpt>
      <trkpt lat="42.718416" lon="0.666648">
        <ele>1739.6</ele>
        <time>2013-05-20T13:18:06Z</time>
      </trkpt>
      <trkpt lat="42.718418" lon="0.666503">
        <ele>1739.2</ele>
        <time>2013-05-20T13:18:16Z</time>
      </trkpt>
      <trkpt lat="42.718421" lon="0.666352">
        <ele>1738.2</ele>
        <time>2013-05-20T13:18:26Z</time>
      </trkpt>
      <trkpt lat="42.718410" lon="0.666218">
        <ele>1737.7</ele>
        <time>2013-05-20T13:18:35Z</time>
      </trkpt>
      <trkpt lat="42.718408" lon="0.666107">
        <ele>1735.8</ele>
        <time>2013-05-20T13:18:44Z</time>
      </trkpt>
      <trkpt lat="42.718400" lon="0.665986">
        <ele>1734.4</ele>
        <time>2013-05-20T13:18:54Z</time>
      </trkpt>
      <trkpt lat="42.718396" lon="0.665856">
        <ele>1731.9</ele>
        <time>2013-05-20T13:19:05Z</time>
      </trkpt>
      <trkpt lat="42.718386" lon="0.665731">
        <ele>1729.1</ele>
        <time>2013-05-20T13:19:15Z</time>
      </trkpt>
      <trkpt lat="42.718398" lon="0.665605">
        <ele>1727.6</ele>
        <time>2013-05-20T13:19:24Z</time>
      </trkpt>
      <trkpt lat="42.718416" lon="0.665484">
        <ele>1726.7</ele>
        <time>2013-05-20T13:19:33Z</time>
      </trkpt>
      <trkpt lat="42.718455" lon="0.665386">
        <ele>1725.7</ele>
        <time>2013-05-20T13:19:53Z</time>
      </trkpt>
      <trkpt lat="42.718531" lon="0.665288">
        <ele>1724.7</ele>
        <time>2013-05-20T13:21:36Z</time>
      </trkpt>
      <trkpt lat="42.718557" lon="0.665189">
        <ele>1723.3</ele>
        <time>2013-05-20T13:21:45Z</time>
      </trkpt>
      <trkpt lat="42.718622" lon="0.665141">
        <ele>1724.7</ele>
        <time>2013-05-20T13:21:59Z</time>
      </trkpt>
      <trkpt lat="42.718600" lon="0.665032">
        <ele>1724.3</ele>
        <time>2013-05-20T13:22:09Z</time>
      </trkpt>
      <trkpt lat="42.718581" lon="0.664914">
        <ele>1722.3</ele>
        <time>2013-05-20T13:22:19Z</time>
      </trkpt>
      <trkpt lat="42.718537" lon="0.664817">
        <ele>1719.5</ele>
        <time>2013-05-20T13:22:31Z</time>
      </trkpt>
      <trkpt lat="42.718603" lon="0.664747">
        <ele>1716.1</ele>
        <time>2013-05-20T13:22:43Z</time>
      </trkpt>
      <trkpt lat="42.718575" lon="0.664613">
        <ele>1713.2</ele>
        <time>2013-05-20T13:22:57Z</time>
      </trkpt>
      <trkpt lat="42.718658" lon="0.664520">
        <ele>1709.4</ele>
        <time>2013-05-20T13:23:10Z</time>
      </trkpt>
      <trkpt lat="42.718668" lon="0.664406">
        <ele>1705.0</ele>
        <time>2013-05-20T13:23:25Z</time>
      </trkpt>
      <trkpt lat="42.718777" lon="0.664381">
        <ele>1702.2</ele>
        <time>2013-05-20T13:23:39Z</time>
      </trkpt>
      <trkpt lat="42.718853" lon="0.664340">
        <ele>1697.3</ele>
        <time>2013-05-20T13:23:52Z</time>
      </trkpt>
      <trkpt lat="42.718937" lon="0.664292">
        <ele>1695.4</ele>
        <time>2013-05-20T13:24:02Z</time>
      </trkpt>
      <trkpt lat="42.718996" lon="0.664215">
        <ele>1694.5</ele>
        <time>2013-05-20T13:24:12Z</time>
      </trkpt>
      <trkpt lat="42.719050" lon="0.664101">
        <ele>1693.5</ele>
        <time>2013-05-20T13:24:23Z</time>
      </trkpt>
      <trkpt lat="42.719158" lon="0.664063">
        <ele>1689.7</ele>
        <time>2013-05-20T13:24:36Z</time>
      </trkpt>
      <trkpt lat="42.719236" lon="0.663988">
        <ele>1686.8</ele>
        <time>2013-05-20T13:24:47Z</time>
      </trkpt>
      <trkpt lat="42.719274" lon="0.663895">
        <ele>1684.4</ele>
        <time>2013-05-20T13:24:57Z</time>
      </trkpt>
      <trkpt lat="42.719319" lon="0.663798">
        <ele>1682.9</ele>
        <time>2013-05-20T13:25:06Z</time>
      </trkpt>
      <trkpt lat="42.719370" lon="0.663688">
        <ele>1680.0</ele>
        <time>2013-05-20T13:25:16Z</time>
      </trkpt>
      <trkpt lat="42.719413" lon="0.663572">
        <ele>1678.6</ele>
        <time>2013-05-20T13:25:26Z</time>
      </trkpt>
      <trkpt lat="42.719490" lon="0.663498">
        <ele>1677.2</ele>
        <time>2013-05-20T13:25:39Z</time>
      </trkpt>
      <trkpt lat="42.719563" lon="0.663372">
        <ele>1672.8</ele>
        <time>2013-05-20T13:25:51Z</time>
      </trkpt>
      <trkpt lat="42.719598" lon="0.663256">
        <ele>1668.5</ele>
        <time>2013-05-20T13:26:00Z</time>
      </trkpt>
      <trkpt lat="42.719670" lon="0.663159">
        <ele>1666.1</ele>
        <time>2013-05-20T13:26:09Z</time>
      </trkpt>
      <trkpt lat="42.719747" lon="0.663071">
        <ele>1663.7</ele>
        <time>2013-05-20T13:26:17Z</time>
      </trkpt>
      <trkpt lat="42.719801" lon="0.662969">
        <ele>1662.7</ele>
        <time>2013-05-20T13:26:25Z</time>
      </trkpt>
      <trkpt lat="42.719799" lon="0.662835">
        <ele>1660.8</ele>
        <time>2013-05-20T13:26:34Z</time>
      </trkpt>
      <trkpt lat="42.719798" lon="0.662706">
        <ele>1659.8</ele>
        <time>2013-05-20T13:26:42Z</time>
      </trkpt>
      <trkpt lat="42.719833" lon="0.662572">
        <ele>1657.9</ele>
        <time>2013-05-20T13:26:51Z</time>
      </trkpt>
      <trkpt lat="42.719886" lon="0.662498">
        <ele>1657.0</ele>
        <time>2013-05-20T13:29:34Z</time>
      </trkpt>
      <trkpt lat="42.719975" lon="0.662409">
        <ele>1653.6</ele>
        <time>2013-05-20T13:29:42Z</time>
      </trkpt>
      <trkpt lat="42.720037" lon="0.662301">
        <ele>1651.7</ele>
        <time>2013-05-20T13:29:51Z</time>
      </trkpt>
      <trkpt lat="42.720071" lon="0.662165">
        <ele>1645.9</ele>
        <time>2013-05-20T13:30:00Z</time>
      </trkpt>
      <trkpt lat="42.720015" lon="0.662070">
        <ele>1641.6</ele>
        <time>2013-05-20T13:30:10Z</time>
      </trkpt>
      <trkpt lat="42.719993" lon="0.661951">
        <ele>1637.7</ele>
        <time>2013-05-20T13:30:20Z</time>
      </trkpt>
      <trkpt lat="42.719956" lon="0.661891">
        <ele>1634.4</ele>
        <time>2013-05-20T13:30:31Z</time>
      </trkpt>
      <trkpt lat="42.719873" lon="0.661953">
        <ele>1630.5</ele>
        <time>2013-05-20T13:31:15Z</time>
      </trkpt>
      <trkpt lat="42.719775" lon="0.661954">
        <ele>1627.2</ele>
        <time>2013-05-20T13:31:27Z</time>
      </trkpt>
      <trkpt lat="42.719686" lon="0.661947">
        <ele>1624.8</ele>
        <time>2013-05-20T13:31:38Z</time>
      </trkpt>
      <trkpt lat="42.719596" lon="0.661904">
        <ele>1622.4</ele>
        <time>2013-05-20T13:31:48Z</time>
      </trkpt>
      <trkpt lat="42.719500" lon="0.661955">
        <ele>1619.5</ele>
        <time>2013-05-20T13:32:00Z</time>
      </trkpt>
      <trkpt lat="42.719402" lon="0.661992">
        <ele>1618.0</ele>
        <time>2013-05-20T13:32:10Z</time>
      </trkpt>
      <trkpt lat="42.719313" lon="0.662045">
        <ele>1615.2</ele>
        <time>2013-05-20T13:32:21Z</time>
      </trkpt>
      <trkpt lat="42.719228" lon="0.662085">
        <ele>1614.2</ele>
        <time>2013-05-20T13:32:32Z</time>
      </trkpt>
      <trkpt lat="42.719137" lon="0.662147">
        <ele>1612.8</ele>
        <time>2013-05-20T13:32:42Z</time>
      </trkpt>
      <trkpt lat="42.719059" lon="0.662214">
        <ele>1610.3</ele>
        <time>2013-05-20T13:32:52Z</time>
      </trkpt>
      <trkpt lat="42.719094" lon="0.662079">
        <ele>1607.0</ele>
        <time>2013-05-20T13:33:05Z</time>
      </trkpt>
      <trkpt lat="42.719156" lon="0.661968">
        <ele>1605.1</ele>
        <time>2013-05-20T13:33:15Z</time>
      </trkpt>
      <trkpt lat="42.719225" lon="0.661858">
        <ele>1602.7</ele>
        <time>2013-05-20T13:33:26Z</time>
      </trkpt>
      <trkpt lat="42.719287" lon="0.661743">
        <ele>1599.8</ele>
        <time>2013-05-20T13:33:42Z</time>
      </trkpt>
      <trkpt lat="42.719352" lon="0.661641">
        <ele>1597.8</ele>
        <time>2013-05-20T13:33:55Z</time>
      </trkpt>
      <trkpt lat="42.719425" lon="0.661528">
        <ele>1594.0</ele>
        <time>2013-05-20T13:34:07Z</time>
      </trkpt>
      <trkpt lat="42.719462" lon="0.661427">
        <ele>1590.2</ele>
        <time>2013-05-20T13:34:22Z</time>
      </trkpt>
      <trkpt lat="42.719346" lon="0.661469">
        <ele>1587.8</ele>
        <time>2013-05-20T13:34:36Z</time>
      </trkpt>
      <trkpt lat="42.719232" lon="0.661518">
        <ele>1583.4</ele>
        <time>2013-05-20T13:34:51Z</time>
      </trkpt>
      <trkpt lat="42.719065" lon="0.661599">
        <ele>1578.1</ele>
        <time>2013-05-20T13:35:11Z</time>
      </trkpt>
      <trkpt lat="42.718957" lon="0.661676">
        <ele>1575.3</ele>
        <time>2013-05-20T13:35:26Z</time>
      </trkpt>
      <trkpt lat="42.718847" lon="0.661713">
        <ele>1569.0</ele>
        <time>2013-05-20T13:35:40Z</time>
      </trkpt>
      <trkpt lat="42.718740" lon="0.661728">
        <ele>1567.1</ele>
        <time>2013-05-20T13:35:54Z</time>
      </trkpt>
      <trkpt lat="42.718628" lon="0.661815">
        <ele>1565.2</ele>
        <time>2013-05-20T13:36:07Z</time>
      </trkpt>
      <trkpt lat="42.718615" lon="0.661904">
        <ele>1565.6</ele>
        <time>2013-05-20T13:38:24Z</time>
      </trkpt>
      <trkpt lat="42.718481" lon="0.661998">
        <ele>1562.3</ele>
        <time>2013-05-20T13:40:45Z</time>
      </trkpt>
      <trkpt lat="42.718366" lon="0.662195">
        <ele>1559.9</ele>
        <time>2013-05-20T13:41:01Z</time>
      </trkpt>
      <trkpt lat="42.718230" lon="0.662320">
        <ele>1556.5</ele>
        <time>2013-05-20T13:41:16Z</time>
      </trkpt>
      <trkpt lat="42.718065" lon="0.662477">
        <ele>1553.6</ele>
        <time>2013-05-20T13:41:39Z</time>
      </trkpt>
      <trkpt lat="42.718005" lon="0.662318">
        <ele>1548.3</ele>
        <time>2013-05-20T13:41:59Z</time>
      </trkpt>
      <trkpt lat="42.717911" lon="0.662180">
        <ele>1538.2</ele>
        <time>2013-05-20T13:42:19Z</time>
      </trkpt>
      <trkpt lat="42.717869" lon="0.662013">
        <ele>1530.6</ele>
        <time>2013-05-20T13:42:36Z</time>
      </trkpt>
      <trkpt lat="42.717819" lon="0.661989">
        <ele>1523.8</ele>
        <time>2013-05-20T13:43:10Z</time>
      </trkpt>
      <trkpt lat="42.717987" lon="0.661637">
        <ele>1520.9</ele>
        <time>2013-05-20T13:45:22Z</time>
      </trkpt>
      <trkpt lat="42.718042" lon="0.661447">
        <ele>1518.1</ele>
        <time>2013-05-20T13:45:41Z</time>
      </trkpt>
      <trkpt lat="42.718090" lon="0.661176">
        <ele>1513.2</ele>
        <time>2013-05-20T13:46:02Z</time>
      </trkpt>
      <trkpt lat="42.718176" lon="0.660980">
        <ele>1509.9</ele>
        <time>2013-05-20T13:46:17Z</time>
      </trkpt>
      <trkpt lat="42.718254" lon="0.660790">
        <ele>1505.6</ele>
        <time>2013-05-20T13:46:34Z</time>
      </trkpt>
      <trkpt lat="42.718323" lon="0.660586">
        <ele>1502.2</ele>
        <time>2013-05-20T13:46:49Z</time>
      </trkpt>
      <trkpt lat="42.718403" lon="0.660386">
        <ele>1498.8</ele>
        <time>2013-05-20T13:47:03Z</time>
      </trkpt>
      <trkpt lat="42.718493" lon="0.660222">
        <ele>1495.0</ele>
        <time>2013-05-20T13:47:17Z</time>
      </trkpt>
      <trkpt lat="42.718560" lon="0.660059">
        <ele>1491.6</ele>
        <time>2013-05-20T13:47:30Z</time>
      </trkpt>
      <trkpt lat="42.718628" lon="0.659873">
        <ele>1486.3</ele>
        <time>2013-05-20T13:47:48Z</time>
      </trkpt>
      <trkpt lat="42.718655" lon="0.659637">
        <ele>1479.1</ele>
        <time>2013-05-20T13:48:09Z</time>
      </trkpt>
      <trkpt lat="42.718657" lon="0.659571">
        <ele>1475.3</ele>
        <time>2013-05-20T13:48:33Z</time>
      </trkpt>
      <trkpt lat="42.718599" lon="0.659402">
        <ele>1469.0</ele>
        <time>2013-05-20T13:49:16Z</time>
      </trkpt>
      <trkpt lat="42.718509" lon="0.659271">
        <ele>1463.7</ele>
        <time>2013-05-20T13:49:48Z</time>
      </trkpt>
      <trkpt lat="42.718473" lon="0.659026">
        <ele>1453.7</ele>
        <time>2013-05-20T13:50:08Z</time>
      </trkpt>
      <trkpt lat="42.718422" lon="0.658863">
        <ele>1447.4</ele>
        <time>2013-05-20T13:50:23Z</time>
      </trkpt>
      <trkpt lat="42.718309" lon="0.658728">
        <ele>1441.2</ele>
        <time>2013-05-20T13:50:45Z</time>
      </trkpt>
      <trkpt lat="42.718212" lon="0.658718">
        <ele>1438.8</ele>
        <time>2013-05-20T13:50:58Z</time>
      </trkpt>
      <trkpt lat="42.718257" lon="0.658578">
        <ele>1435.9</ele>
        <time>2013-05-20T13:51:17Z</time>
      </trkpt>
      <trkpt lat="42.718379" lon="0.658407">
        <ele>1433.5</ele>
        <time>2013-05-20T13:51:54Z</time>
      </trkpt>
      <trkpt lat="42.718508" lon="0.658363">
        <ele>1431.1</ele>
        <time>2013-05-20T13:52:12Z</time>
      </trkpt>
      <trkpt lat="42.718652" lon="0.658342">
        <ele>1427.7</ele>
        <time>2013-05-20T13:52:27Z</time>
      </trkpt>
      <trkpt lat="42.718864" lon="0.658328">
        <ele>1427.2</ele>
        <time>2013-05-20T13:53:18Z</time>
      </trkpt>
      <trkpt lat="42.718950" lon="0.658278">
        <ele>1425.8</ele>
        <time>2013-05-20T13:53:58Z</time>
      </trkpt>
      <trkpt lat="42.719179" lon="0.658067">
        <ele>1422.4</ele>
        <time>2013-05-20T13:55:04Z</time>
      </trkpt>
      <trkpt lat="42.719287" lon="0.657863">
        <ele>1419.5</ele>
        <time>2013-05-20T13:55:22Z</time>
      </trkpt>
      <trkpt lat="42.719347" lon="0.657959">
        <ele>1418.1</ele>
        <time>2013-05-20T13:57:16Z</time>
      </trkpt>
      <trkpt lat="42.719405" lon="0.657779">
        <ele>1416.6</ele>
        <time>2013-05-20T13:57:39Z</time>
      </trkpt>
      <trkpt lat="42.719564" lon="0.657616">
        <ele>1412.3</ele>
        <time>2013-05-20T13:58:02Z</time>
      </trkpt>
      <trkpt lat="42.719751" lon="0.657512">
        <ele>1407.5</ele>
        <time>2013-05-20T13:58:28Z</time>
      </trkpt>
      <trkpt lat="42.719924" lon="0.657291">
        <ele>1404.6</ele>
        <time>2013-05-20T13:58:43Z</time>
      </trkpt>
      <trkpt lat="42.719979" lon="0.657104">
        <ele>1403.7</ele>
        <time>2013-05-20T13:58:53Z</time>
      </trkpt>
      <trkpt lat="42.720009" lon="0.656950">
        <ele>1402.2</ele>
        <time>2013-05-20T13:59:03Z</time>
      </trkpt>
      <trkpt lat="42.720024" lon="0.656796">
        <ele>1402.2</ele>
        <time>2013-05-20T13:59:12Z</time>
      </trkpt>
      <trkpt lat="42.720068" lon="0.656667">
        <ele>1399.8</ele>
        <time>2013-05-20T13:59:21Z</time>
      </trkpt>
      <trkpt lat="42.720148" lon="0.656552">
        <ele>1398.4</ele>
        <time>2013-05-20T13:59:30Z</time>
      </trkpt>
      <trkpt lat="42.720201" lon="0.656435">
        <ele>1397.4</ele>
        <time>2013-05-20T13:59:39Z</time>
      </trkpt>
      <trkpt lat="42.720243" lon="0.656314">
        <ele>1396.0</ele>
        <time>2013-05-20T13:59:49Z</time>
      </trkpt>
      <trkpt lat="42.720286" lon="0.656193">
        <ele>1394.5</ele>
        <time>2013-05-20T13:59:58Z</time>
      </trkpt>
      <trkpt lat="42.720355" lon="0.656102">
        <ele>1394.1</ele>
        <time>2013-05-20T14:00:17Z</time>
      </trkpt>
      <trkpt lat="42.720411" lon="0.655996">
        <ele>1393.1</ele>
        <time>2013-05-20T14:00:24Z</time>
      </trkpt>
      <trkpt lat="42.720457" lon="0.655886">
        <ele>1391.7</ele>
        <time>2013-05-20T14:00:31Z</time>
      </trkpt>
      <trkpt lat="42.720501" lon="0.655759">
        <ele>1390.2</ele>
        <time>2013-05-20T14:00:38Z</time>
      </trkpt>
      <trkpt lat="42.720548" lon="0.655629">
        <ele>1389.2</ele>
        <time>2013-05-20T14:00:46Z</time>
      </trkpt>
      <trkpt lat="42.720537" lon="0.655629">
        <ele>1389.2</ele>
        <time>2013-05-20T14:00:59Z</time>
      </trkpt>
      <trkpt lat="42.720605" lon="0.655521">
        <ele>1388.3</ele>
        <time>2013-05-20T14:01:06Z</time>
      </trkpt>
      <trkpt lat="42.720681" lon="0.655421">
        <ele>1386.8</ele>
        <time>2013-05-20T14:01:14Z</time>
      </trkpt>
      <trkpt lat="42.720750" lon="0.655328">
        <ele>1385.9</ele>
        <time>2013-05-20T14:01:21Z</time>
      </trkpt>
      <trkpt lat="42.720822" lon="0.655220">
        <ele>1385.4</ele>
        <time>2013-05-20T14:01:29Z</time>
      </trkpt>
      <trkpt lat="42.720872" lon="0.655110">
        <ele>1385.9</ele>
        <time>2013-05-20T14:01:36Z</time>
      </trkpt>
      <trkpt lat="42.720888" lon="0.654984">
        <ele>1384.9</ele>
        <time>2013-05-20T14:01:43Z</time>
      </trkpt>
      <trkpt lat="42.720882" lon="0.654909">
        <ele>1384.4</ele>
        <time>2013-05-20T14:06:14Z</time>
      </trkpt>
      <trkpt lat="42.720940" lon="0.654809">
        <ele>1384.9</ele>
        <time>2013-05-20T14:06:22Z</time>
      </trkpt>
      <trkpt lat="42.720975" lon="0.654706">
        <ele>1385.4</ele>
        <time>2013-05-20T14:06:29Z</time>
      </trkpt>
      <trkpt lat="42.721007" lon="0.654568">
        <ele>1384.9</ele>
        <time>2013-05-20T14:06:37Z</time>
      </trkpt>
      <trkpt lat="42.721051" lon="0.654452">
        <ele>1384.0</ele>
        <time>2013-05-20T14:06:44Z</time>
      </trkpt>
      <trkpt lat="42.721117" lon="0.654351">
        <ele>1382.5</ele>
        <time>2013-05-20T14:06:52Z</time>
      </trkpt>
      <trkpt lat="42.721197" lon="0.654251">
        <ele>1380.1</ele>
        <time>2013-05-20T14:07:00Z</time>
      </trkpt>
      <trkpt lat="42.721286" lon="0.654153">
        <ele>1379.2</ele>
        <time>2013-05-20T14:07:08Z</time>
      </trkpt>
      <trkpt lat="42.721345" lon="0.654058">
        <ele>1376.8</ele>
        <time>2013-05-20T14:07:16Z</time>
      </trkpt>
      <trkpt lat="42.721387" lon="0.653922">
        <ele>1375.8</ele>
        <time>2013-05-20T14:07:24Z</time>
      </trkpt>
      <trkpt lat="42.721436" lon="0.653796">
        <ele>1375.3</ele>
        <time>2013-05-20T14:07:32Z</time>
      </trkpt>
    </trkseg>
  </trk>
</gpx>

